AAL316 KMKE-PHNL
Flight info
| Callsign | AAL316 |
|---|---|
| Flight time | N/A |
| Altitude | 36000 |
| Route | HAWKN DLL J34 BIL J16 HIA/N0492F380 J16 BTG J136 ONP C1419 HEMLO A332 HALLI/N0476F400 A332 AUNTI R463 APACK INOYI1 |
| Aircraft | B789/H-SDE1E2E3FGHIJ2J3J4J5M1RWXY/LB1D1 |
Departure
| Time | 2026-04-24 22:30 |
|---|---|
| Airport | General Mitchell International Airport (KMKE) |
Arrival
| Time | N/A |
|---|---|
| Airport | Daniel K. Inouye International Airport (PHNL) |
| Time | Latitude | Longitude | Altitude | Speed | Heading |
|---|---|---|---|---|---|
| 2026-04-24 21:30 | 42.95044 | -87.90166 | 693 ft | 0 kts | 126° |
| 2026-04-24 22:16 | 42.95046 | -87.90170 | 693 ft | 3 kts | 126° |
| 2026-04-24 22:16 | 42.95062 | -87.90199 | 684 ft | 4 kts | 126° |
| 2026-04-24 22:16 | 42.95072 | -87.90218 | 689 ft | 3 kts | 126° |
| 2026-04-24 22:16 | 42.95071 | -87.90216 | 689 ft | 4 kts | 218° |
| 2026-04-24 22:17 | 42.95047 | -87.90245 | 684 ft | 4 kts | 40° |
| 2026-04-24 22:17 | 42.95031 | -87.90264 | 684 ft | 2 kts | 40° |
| 2026-04-24 22:17 | 42.95029 | -87.90265 | 684 ft | 0 kts | 40° |
| 2026-04-24 22:22 | 42.95030 | -87.90264 | 684 ft | 0 kts | 40° |
| 2026-04-24 22:23 | 42.95033 | -87.90261 | 684 ft | 3 kts | 41° |
| 2026-04-24 22:24 | 42.95070 | -87.90228 | 689 ft | 10 kts | 26° |
| 2026-04-24 22:24 | 42.95149 | -87.90175 | 684 ft | 15 kts | 38° |
| 2026-04-24 22:24 | 42.95205 | -87.90070 | 686 ft | 12 kts | 95° |
| 2026-04-24 22:24 | 42.95147 | -87.89958 | 684 ft | 18 kts | 133° |
| 2026-04-24 22:25 | 42.95042 | -87.89820 | 687 ft | 24 kts | 147° |
| 2026-04-24 22:25 | 42.94915 | -87.89709 | 689 ft | 22 kts | 164° |
| 2026-04-24 22:25 | 42.94782 | -87.89704 | 689 ft | 13 kts | 148° |
| 2026-04-24 22:25 | 42.94701 | -87.89634 | 687 ft | 16 kts | 180° |
| 2026-04-24 22:26 | 42.94565 | -87.89658 | 689 ft | 23 kts | 188° |
| 2026-04-24 22:26 | 42.94385 | -87.89689 | 688 ft | 29 kts | 188° |
| 2026-04-24 22:26 | 42.94197 | -87.89723 | 689 ft | 23 kts | 198° |
| 2026-04-24 22:26 | 42.94070 | -87.89868 | 688 ft | 25 kts | 209° |
| 2026-04-24 22:27 | 42.93890 | -87.89888 | 689 ft | 29 kts | 180° |
| 2026-04-24 22:27 | 42.93668 | -87.89894 | 688 ft | 35 kts | 181° |
| 2026-04-24 22:27 | 42.93412 | -87.89902 | 689 ft | 39 kts | 183° |
| 2026-04-24 22:27 | 42.93174 | -87.89938 | 689 ft | 29 kts | 187° |
| 2026-04-24 22:28 | 42.93076 | -87.89893 | 687 ft | 14 kts | 107° |
| 2026-04-24 22:28 | 42.93100 | -87.89761 | 684 ft | 15 kts | 32° |
| 2026-04-24 22:28 | 42.93197 | -87.89739 | 689 ft | 0 kts | 7° |
| 2026-04-24 22:29 | 42.93238 | -87.89733 | 689 ft | 28 kts | 7° |
| 2026-04-24 22:30 | 42.93711 | -87.89655 | 690 ft | 107 kts | 7° |
| 2026-04-24 22:30 | 42.94694 | -87.89487 | 693 ft | 175 kts | 6° |
| 2026-04-24 22:30 | 42.95925 | -87.89198 | 1545 ft | 175 kts | 7° |
| 2026-04-24 22:30 | 42.97217 | -87.88960 | 2187 ft | 195 kts | 4° |
| 2026-04-24 22:31 | 42.98637 | -87.88808 | 2689 ft | 217 kts | 2° |
| 2026-04-24 22:31 | 43.00229 | -87.88593 | 3091 ft | 243 kts | 4° |
| 2026-04-24 22:31 | 43.01978 | -87.88291 | 3627 ft | 260 kts | 5° |
| 2026-04-24 22:31 | 43.03760 | -87.87978 | 4546 ft | 261 kts | 5° |
| 2026-04-24 22:32 | 43.05571 | -87.87675 | 5361 ft | 264 kts | 4° |
| 2026-04-24 22:32 | 43.07406 | -87.87374 | 6208 ft | 267 kts | 4° |
| 2026-04-24 22:32 | 43.09266 | -87.87193 | 6889 ft | 269 kts | 350° |
| 2026-04-24 22:32 | 43.10902 | -87.88257 | 7624 ft | 260 kts | 312° |
| 2026-04-24 22:33 | 43.11944 | -87.90256 | 8347 ft | 259 kts | 297° |
| 2026-04-24 22:33 | 43.12847 | -87.92426 | 9113 ft | 262 kts | 297° |
| 2026-04-24 22:33 | 43.13807 | -87.94559 | 9757 ft | 270 kts | 300° |
| 2026-04-24 22:33 | 43.14895 | -87.96722 | 9840 ft | 278 kts | 302° |
| 2026-04-24 22:34 | 43.16004 | -87.98883 | 9810 ft | 280 kts | 301° |
| 2026-04-24 22:34 | 43.17111 | -88.01119 | 9822 ft | 288 kts | 301° |
| 2026-04-24 22:34 | 43.18278 | -88.03510 | 9835 ft | 318 kts | 301° |
| 2026-04-24 22:34 | 43.19549 | -88.06089 | 9849 ft | 330 kts | 301° |
| 2026-04-24 22:35 | 43.20850 | -88.08705 | 9851 ft | 334 kts | 301° |
| 2026-04-24 22:35 | 43.21244 | -88.09498 | 9848 ft | 335 kts | 301° |
| 2026-04-24 22:35 | 43.22413 | -88.11865 | 9843 ft | 335 kts | 301° |
| 2026-04-24 22:35 | 43.23730 | -88.14550 | 9840 ft | 339 kts | 301° |
| 2026-04-24 22:36 | 43.25044 | -88.17219 | 9858 ft | 339 kts | 301° |
| 2026-04-24 22:36 | 43.26355 | -88.19879 | 10800 ft | 334 kts | 301° |
| 2026-04-24 22:36 | 43.27664 | -88.22545 | 11642 ft | 339 kts | 301° |
| 2026-04-24 22:36 | 43.28983 | -88.25235 | 12501 ft | 342 kts | 301° |
| 2026-04-24 22:37 | 43.30105 | -88.28100 | 13307 ft | 341 kts | 285° |
| 2026-04-24 22:37 | 43.30715 | -88.31261 | 14041 ft | 344 kts | 282° |
| 2026-04-24 22:37 | 43.31276 | -88.34478 | 14766 ft | 348 kts | 281° |
| 2026-04-24 22:37 | 43.31821 | -88.37730 | 15497 ft | 352 kts | 281° |
| 2026-04-24 22:38 | 43.32392 | -88.41022 | 16220 ft | 356 kts | 281° |
| 2026-04-24 22:38 | 43.32979 | -88.44345 | 16912 ft | 360 kts | 281° |
| 2026-04-24 22:38 | 43.33566 | -88.47706 | 17612 ft | 364 kts | 281° |
| 2026-04-24 22:38 | 43.34152 | -88.51111 | 18286 ft | 368 kts | 281° |
| 2026-04-24 22:39 | 43.34747 | -88.54560 | 18882 ft | 371 kts | 281° |
| 2026-04-24 22:39 | 43.35345 | -88.58014 | 19446 ft | 375 kts | 281° |
| 2026-04-24 22:39 | 43.35949 | -88.61513 | 20013 ft | 378 kts | 281° |
| 2026-04-24 22:39 | 43.36556 | -88.65046 | 20565 ft | 382 kts | 281° |
| 2026-04-24 22:40 | 43.37167 | -88.68607 | 21102 ft | 385 kts | 281° |
| 2026-04-24 22:40 | 43.37784 | -88.72207 | 21629 ft | 388 kts | 281° |
| 2026-04-24 22:40 | 43.38403 | -88.75828 | 22146 ft | 391 kts | 281° |
| 2026-04-24 22:40 | 43.39027 | -88.79488 | 22677 ft | 395 kts | 281° |
| 2026-04-24 22:41 | 43.39656 | -88.83179 | 23166 ft | 398 kts | 280° |
| 2026-04-24 22:41 | 43.40286 | -88.86889 | 23648 ft | 400 kts | 280° |
| 2026-04-24 22:41 | 43.40920 | -88.90631 | 24062 ft | 402 kts | 280° |
| 2026-04-24 22:41 | 43.41556 | -88.94391 | 24488 ft | 404 kts | 280° |
| 2026-04-24 22:42 | 43.42193 | -88.98161 | 24918 ft | 406 kts | 280° |
| 2026-04-24 22:42 | 43.42831 | -89.01951 | 25320 ft | 408 kts | 280° |
| 2026-04-24 22:42 | 43.43470 | -89.05755 | 25704 ft | 409 kts | 279° |
| 2026-04-24 22:42 | 43.44112 | -89.09581 | 26106 ft | 411 kts | 279° |
| 2026-04-24 22:43 | 43.44754 | -89.13419 | 26504 ft | 413 kts | 279° |
| 2026-04-24 22:43 | 43.45399 | -89.17280 | 26909 ft | 414 kts | 279° |
| 2026-04-24 22:43 | 43.46046 | -89.21163 | 27282 ft | 417 kts | 279° |
| 2026-04-24 22:43 | 43.46692 | -89.25053 | 27679 ft | 419 kts | 279° |
| 2026-04-24 22:44 | 43.47341 | -89.28968 | 28062 ft | 420 kts | 279° |
| 2026-04-24 22:44 | 43.47993 | -89.32903 | 28428 ft | 422 kts | 279° |
| 2026-04-24 22:44 | 43.48644 | -89.36852 | 28799 ft | 424 kts | 279° |
| 2026-04-24 22:44 | 43.49298 | -89.40825 | 29163 ft | 426 kts | 279° |
| 2026-04-24 22:45 | 43.49954 | -89.44815 | 29524 ft | 428 kts | 278° |
| 2026-04-24 22:45 | 43.50613 | -89.48833 | 29877 ft | 430 kts | 278° |
| 2026-04-24 22:45 | 43.51272 | -89.52864 | 30159 ft | 432 kts | 278° |
| 2026-04-24 22:45 | 43.51932 | -89.56912 | 30448 ft | 434 kts | 278° |
| 2026-04-24 22:46 | 43.52594 | -89.60978 | 30739 ft | 436 kts | 278° |
| 2026-04-24 22:46 | 43.53250 | -89.65019 | 31012 ft | 438 kts | 278° |
| 2026-04-24 22:46 | 43.53917 | -89.69135 | 31264 ft | 440 kts | 278° |
| 2026-04-24 22:46 | 43.54582 | -89.73250 | 31520 ft | 442 kts | 278° |
| 2026-04-24 22:47 | 43.55301 | -89.77382 | 31775 ft | 446 kts | 283° |
| 2026-04-24 22:47 | 43.56225 | -89.81479 | 31983 ft | 448 kts | 282° |
| 2026-04-24 22:47 | 43.57125 | -89.85599 | 32251 ft | 449 kts | 282° |
| 2026-04-24 22:47 | 43.58024 | -89.89734 | 32497 ft | 451 kts | 282° |
| 2026-04-24 22:48 | 43.58937 | -89.93885 | 32738 ft | 453 kts | 282° |
| 2026-04-24 22:48 | 43.59855 | -89.98049 | 32968 ft | 455 kts | 282° |
| 2026-04-24 22:48 | 43.60770 | -90.02239 | 33192 ft | 456 kts | 282° |
| 2026-04-24 22:48 | 43.61683 | -90.06438 | 33429 ft | 458 kts | 282° |
| 2026-04-24 22:49 | 43.62598 | -90.10645 | 33634 ft | 460 kts | 282° |
| 2026-04-24 22:49 | 43.63521 | -90.14887 | 33843 ft | 461 kts | 282° |
| 2026-04-24 22:49 | 43.64444 | -90.19143 | 34017 ft | 463 kts | 282° |
| 2026-04-24 22:49 | 43.65366 | -90.23405 | 34229 ft | 464 kts | 282° |
| 2026-04-24 22:50 | 43.66286 | -90.27667 | 34487 ft | 463 kts | 282° |
| 2026-04-24 22:50 | 43.67202 | -90.31917 | 34749 ft | 462 kts | 282° |
| 2026-04-24 22:50 | 43.68114 | -90.36162 | 35009 ft | 461 kts | 282° |
| 2026-04-24 22:50 | 43.69023 | -90.40402 | 35299 ft | 459 kts | 282° |
| 2026-04-24 22:51 | 43.69928 | -90.44630 | 35531 ft | 459 kts | 282° |
| 2026-04-24 22:51 | 43.70833 | -90.48866 | 35702 ft | 460 kts | 282° |
| 2026-04-24 22:51 | 43.71736 | -90.53107 | 35861 ft | 461 kts | 282° |
| 2026-04-24 22:51 | 43.72647 | -90.57388 | 35868 ft | 465 kts | 282° |
| 2026-04-24 22:52 | 43.74464 | -90.65943 | 35858 ft | 462 kts | 282° |
| 2026-04-24 22:52 | 43.76252 | -90.74417 | 35858 ft | 462 kts | 282° |
| 2026-04-24 22:53 | 43.78047 | -90.82945 | 35863 ft | 462 kts | 281° |
| 2026-04-24 22:53 | 43.79836 | -90.91490 | 35864 ft | 463 kts | 281° |
| 2026-04-24 22:54 | 43.81324 | -90.98618 | 35883 ft | 464 kts | 281° |
| 2026-04-24 22:54 | 43.83107 | -91.07195 | 35880 ft | 464 kts | 281° |
| 2026-04-24 22:55 | 43.84887 | -91.15790 | 35878 ft | 464 kts | 281° |
| 2026-04-24 22:55 | 43.86662 | -91.24400 | 35883 ft | 465 kts | 281° |
| 2026-04-24 22:56 | 43.88430 | -91.33016 | 35886 ft | 465 kts | 281° |
| 2026-04-24 22:56 | 43.90191 | -91.41630 | 35885 ft | 464 kts | 281° |
| 2026-04-24 22:57 | 43.91824 | -91.50298 | 35895 ft | 463 kts | 278° |
| 2026-04-24 22:57 | 43.93308 | -91.59035 | 35910 ft | 466 kts | 279° |
| 2026-04-24 22:58 | 43.94759 | -91.67727 | 35921 ft | 466 kts | 278° |
| 2026-04-24 22:58 | 43.96225 | -91.76518 | 35920 ft | 468 kts | 278° |
| 2026-04-24 22:59 | 43.97688 | -91.85342 | 35926 ft | 471 kts | 278° |
| 2026-04-24 23:00 | 43.99885 | -91.98679 | 35925 ft | 474 kts | 278° |
| 2026-04-24 23:00 | 44.01348 | -92.07619 | 35918 ft | 476 kts | 278° |
| 2026-04-24 23:01 | 44.02812 | -92.16609 | 35930 ft | 478 kts | 277° |
| 2026-04-24 23:01 | 44.04272 | -92.25627 | 35922 ft | 477 kts | 277° |
| 2026-04-24 23:02 | 44.05720 | -92.34618 | 35932 ft | 477 kts | 277° |
| 2026-04-24 23:02 | 44.07162 | -92.43620 | 35917 ft | 478 kts | 277° |
| 2026-04-24 23:02 | 44.07878 | -92.48116 | 36403 ft | 472 kts | 278° |
| 2026-04-24 23:03 | 44.08583 | -92.52516 | 36267 ft | 461 kts | 278° |
| 2026-04-24 23:03 | 44.09269 | -92.56829 | 36134 ft | 454 kts | 278° |
| 2026-04-24 23:03 | 44.09945 | -92.61111 | 35606 ft | 453 kts | 276° |
| 2026-04-24 23:03 | 44.10617 | -92.65405 | 35724 ft | 456 kts | 276° |
| 2026-04-24 23:04 | 44.11300 | -92.69743 | 35845 ft | 460 kts | 276° |
| 2026-04-24 23:04 | 44.12678 | -92.78512 | 35937 ft | 469 kts | 276° |
| 2026-04-24 23:05 | 44.14076 | -92.87479 | 35917 ft | 477 kts | 276° |
| 2026-04-24 23:05 | 44.15484 | -92.96536 | 35945 ft | 479 kts | 276° |
| 2026-04-24 23:06 | 44.16880 | -93.05595 | 35946 ft | 478 kts | 276° |
| 2026-04-24 23:06 | 44.18269 | -93.14647 | 35943 ft | 478 kts | 276° |
| 2026-04-24 23:07 | 44.19643 | -93.23648 | 35934 ft | 477 kts | 276° |
| 2026-04-24 23:07 | 44.21013 | -93.32686 | 35944 ft | 477 kts | 276° |
| 2026-04-24 23:08 | 44.22378 | -93.41733 | 35944 ft | 476 kts | 275° |
| 2026-04-24 23:08 | 44.23732 | -93.50765 | 35959 ft | 476 kts | 275° |
| 2026-04-24 23:09 | 44.25082 | -93.59811 | 35947 ft | 476 kts | 275° |
| 2026-04-24 23:09 | 44.26422 | -93.68852 | 35961 ft | 476 kts | 275° |
| 2026-04-24 23:10 | 44.27755 | -93.77890 | 35952 ft | 475 kts | 275° |
| 2026-04-24 23:10 | 44.29081 | -93.86940 | 35961 ft | 476 kts | 275° |
| 2026-04-24 23:11 | 44.30400 | -93.95990 | 35946 ft | 476 kts | 275° |
| 2026-04-24 23:11 | 44.31704 | -94.05001 | 35961 ft | 477 kts | 274° |
| 2026-04-24 23:12 | 44.33012 | -94.14082 | 35951 ft | 477 kts | 274° |
| 2026-04-24 23:12 | 44.34312 | -94.23169 | 35960 ft | 477 kts | 274° |
| 2026-04-24 23:13 | 44.35606 | -94.32259 | 35954 ft | 477 kts | 274° |
| 2026-04-24 23:13 | 44.36893 | -94.41363 | 35967 ft | 477 kts | 274° |
| 2026-04-24 23:14 | 44.38173 | -94.50464 | 35958 ft | 478 kts | 274° |
| 2026-04-24 23:14 | 44.39447 | -94.59587 | 35969 ft | 478 kts | 274° |
| 2026-04-24 23:15 | 44.40714 | -94.68708 | 35953 ft | 478 kts | 273° |
| 2026-04-24 23:15 | 44.41973 | -94.77836 | 35961 ft | 478 kts | 273° |
| 2026-04-24 23:16 | 44.43225 | -94.86963 | 35958 ft | 477 kts | 273° |
| 2026-04-24 23:16 | 44.44467 | -94.96084 | 35961 ft | 477 kts | 273° |
| 2026-04-24 23:17 | 44.45705 | -95.05216 | 35954 ft | 476 kts | 272° |
| 2026-04-24 23:17 | 44.46929 | -95.14326 | 35962 ft | 476 kts | 272° |
| 2026-04-24 23:18 | 44.48023 | -95.23451 | 35959 ft | 474 kts | 271° |
| 2026-04-24 23:18 | 44.49125 | -95.32502 | 35966 ft | 475 kts | 272° |
| 2026-04-24 23:19 | 44.50223 | -95.41602 | 35962 ft | 473 kts | 271° |
| 2026-04-24 23:19 | 44.51309 | -95.50710 | 35976 ft | 474 kts | 271° |
| 2026-04-24 23:20 | 44.52394 | -95.59810 | 35964 ft | 473 kts | 271° |
| 2026-04-24 23:20 | 44.53463 | -95.68902 | 35968 ft | 473 kts | 271° |
| 2026-04-24 23:21 | 44.54530 | -95.77993 | 35964 ft | 472 kts | 271° |
| 2026-04-24 23:21 | 44.55584 | -95.87069 | 35972 ft | 471 kts | 271° |
| 2026-04-24 23:22 | 44.56631 | -95.96126 | 35970 ft | 470 kts | 271° |
| 2026-04-24 23:22 | 44.57666 | -96.05167 | 35976 ft | 469 kts | 271° |
| 2026-04-24 23:23 | 44.58695 | -96.14200 | 35969 ft | 469 kts | 271° |
| 2026-04-24 23:23 | 44.59716 | -96.23252 | 35990 ft | 470 kts | 271° |
| 2026-04-24 23:24 | 44.60733 | -96.32309 | 35981 ft | 470 kts | 271° |
| 2026-04-24 23:24 | 44.61739 | -96.41357 | 35983 ft | 469 kts | 271° |
| 2026-04-24 23:25 | 44.62739 | -96.50397 | 35973 ft | 469 kts | 271° |
| 2026-04-24 23:25 | 44.63729 | -96.59438 | 35986 ft | 469 kts | 272° |
| 2026-04-24 23:26 | 44.64714 | -96.68478 | 35977 ft | 468 kts | 272° |
| 2026-04-24 23:26 | 44.65684 | -96.77468 | 35982 ft | 468 kts | 272° |
| 2026-04-24 23:27 | 44.66654 | -96.86509 | 35982 ft | 468 kts | 272° |
| 2026-04-24 23:27 | 44.67614 | -96.95550 | 35976 ft | 468 kts | 272° |
| 2026-04-24 23:28 | 44.68569 | -97.04592 | 35968 ft | 468 kts | 272° |
| 2026-04-24 23:28 | 44.69523 | -97.13709 | 35981 ft | 468 kts | 272° |
| 2026-04-24 23:29 | 44.70457 | -97.22699 | 35973 ft | 468 kts | 272° |
| 2026-04-24 23:29 | 44.71392 | -97.31774 | 35977 ft | 469 kts | 272° |
| 2026-04-24 23:30 | 44.72322 | -97.40869 | 35971 ft | 469 kts | 272° |
| 2026-04-24 23:30 | 44.73244 | -97.49964 | 35980 ft | 470 kts | 272° |
| 2026-04-24 23:31 | 44.74160 | -97.59064 | 35974 ft | 470 kts | 272° |
| 2026-04-24 23:31 | 44.75053 | -97.67983 | 35962 ft | 449 kts | 274° |
| 2026-04-24 23:32 | 44.75903 | -97.76620 | 35959 ft | 448 kts | 274° |
| 2026-04-24 23:32 | 44.76764 | -97.85391 | 35974 ft | 455 kts | 274° |
| 2026-04-24 23:33 | 44.77626 | -97.94226 | 35970 ft | 456 kts | 274° |
| 2026-04-24 23:33 | 44.78479 | -98.03070 | 35974 ft | 456 kts | 274° |
| 2026-04-24 23:34 | 44.79323 | -98.11870 | 35976 ft | 456 kts | 274° |
| 2026-04-24 23:34 | 44.80162 | -98.20711 | 35967 ft | 456 kts | 274° |
| 2026-04-24 23:35 | 44.80995 | -98.29559 | 35971 ft | 456 kts | 274° |
| 2026-04-24 23:35 | 44.81822 | -98.38410 | 35971 ft | 455 kts | 275° |
| 2026-04-24 23:36 | 44.82641 | -98.47255 | 35968 ft | 455 kts | 275° |
| 2026-04-24 23:36 | 44.83451 | -98.56082 | 35968 ft | 454 kts | 275° |
| 2026-04-24 23:37 | 44.84254 | -98.64908 | 35977 ft | 453 kts | 275° |
| 2026-04-24 23:37 | 44.85442 | -98.78108 | 35977 ft | 451 kts | 275° |
| 2026-04-24 23:38 | 44.86223 | -98.86883 | 35983 ft | 451 kts | 275° |
| 2026-04-24 23:38 | 44.86994 | -98.95629 | 35991 ft | 450 kts | 275° |
| 2026-04-24 23:39 | 44.87756 | -99.04342 | 35990 ft | 450 kts | 275° |
| 2026-04-24 23:39 | 44.88515 | -99.13097 | 35996 ft | 450 kts | 275° |
| 2026-04-24 23:40 | 44.89268 | -99.21865 | 35996 ft | 450 kts | 274° |
| 2026-04-24 23:40 | 44.90012 | -99.30620 | 36001 ft | 450 kts | 274° |
| 2026-04-24 23:41 | 44.90751 | -99.39378 | 36000 ft | 449 kts | 274° |
| 2026-04-24 23:41 | 44.91482 | -99.48135 | 36008 ft | 449 kts | 274° |
| 2026-04-24 23:42 | 44.92206 | -99.56890 | 36004 ft | 449 kts | 274° |
| 2026-04-24 23:42 | 44.92802 | -99.64155 | 36004 ft | 449 kts | 274° |
| 2026-04-24 23:43 | 44.93514 | -99.72917 | 36002 ft | 449 kts | 274° |
| 2026-04-24 23:43 | 44.94219 | -99.81679 | 36005 ft | 449 kts | 274° |
| 2026-04-24 23:44 | 44.94917 | -99.90429 | 36010 ft | 449 kts | 274° |
| 2026-04-24 23:44 | 44.95608 | -99.99184 | 36006 ft | 449 kts | 274° |
| 2026-04-24 23:45 | 44.96293 | -100.07946 | 36003 ft | 449 kts | 274° |
| 2026-04-24 23:45 | 44.96971 | -100.16711 | 36006 ft | 449 kts | 274° |
| 2026-04-24 23:46 | 44.97643 | -100.25488 | 36005 ft | 449 kts | 274° |
| 2026-04-24 23:46 | 44.98307 | -100.34250 | 36007 ft | 449 kts | 274° |
| 2026-04-24 23:47 | 44.98965 | -100.43028 | 36011 ft | 449 kts | 274° |
| 2026-04-24 23:47 | 44.99617 | -100.51805 | 36007 ft | 449 kts | 274° |
| 2026-04-24 23:48 | 45.00263 | -100.60595 | 36010 ft | 450 kts | 274° |
| 2026-04-24 23:48 | 45.00901 | -100.69381 | 36011 ft | 449 kts | 274° |
| 2026-04-24 23:49 | 45.01533 | -100.78176 | 36009 ft | 450 kts | 274° |
| 2026-04-24 23:49 | 45.02158 | -100.86957 | 36012 ft | 449 kts | 274° |
| 2026-04-24 23:50 | 45.02776 | -100.95744 | 36014 ft | 449 kts | 274° |
| 2026-04-24 23:50 | 45.03386 | -101.04524 | 36017 ft | 448 kts | 274° |
| 2026-04-24 23:51 | 45.03988 | -101.13273 | 36016 ft | 447 kts | 274° |
| 2026-04-24 23:51 | 45.04579 | -101.21972 | 36014 ft | 448 kts | 274° |
| 2026-04-24 23:52 | 45.05168 | -101.30729 | 36014 ft | 447 kts | 274° |
| 2026-04-24 23:52 | 45.05750 | -101.39492 | 36015 ft | 448 kts | 274° |
| 2026-04-24 23:53 | 45.06327 | -101.48281 | 36012 ft | 448 kts | 274° |
| 2026-04-24 23:53 | 45.06896 | -101.57058 | 36011 ft | 448 kts | 274° |
| 2026-04-24 23:54 | 45.07459 | -101.65841 | 36008 ft | 448 kts | 274° |
| 2026-04-24 23:54 | 45.08248 | -101.74584 | 36008 ft | 450 kts | 279° |
| 2026-04-24 23:55 | 45.09431 | -101.83293 | 36007 ft | 451 kts | 279° |
| 2026-04-24 23:55 | 45.10622 | -101.92021 | 35998 ft | 452 kts | 279° |
| 2026-04-24 23:56 | 45.11803 | -102.00760 | 35991 ft | 452 kts | 279° |
| 2026-04-24 23:56 | 45.12980 | -102.09510 | 35999 ft | 452 kts | 279° |
| 2026-04-24 23:57 | 45.14151 | -102.18273 | 35989 ft | 453 kts | 279° |
| 2026-04-24 23:57 | 45.15315 | -102.27043 | 35989 ft | 453 kts | 279° |
| 2026-04-24 23:58 | 45.16474 | -102.35822 | 35993 ft | 453 kts | 279° |
| 2026-04-24 23:58 | 45.17626 | -102.44607 | 35992 ft | 453 kts | 279° |
| 2026-04-24 23:59 | 45.18772 | -102.53399 | 35987 ft | 455 kts | 279° |
| 2026-04-24 23:59 | 45.19907 | -102.62164 | 35992 ft | 454 kts | 279° |
| 2026-04-25 00:00 | 45.21041 | -102.70976 | 35993 ft | 454 kts | 279° |
| 2026-04-25 00:00 | 45.22169 | -102.79790 | 35994 ft | 454 kts | 278° |
| 2026-04-25 00:01 | 45.23290 | -102.88619 | 35983 ft | 455 kts | 278° |
| 2026-04-25 00:01 | 45.24405 | -102.97448 | 35976 ft | 454 kts | 278° |
| 2026-04-25 00:02 | 45.25512 | -103.06272 | 35975 ft | 454 kts | 278° |
| 2026-04-25 00:02 | 45.26611 | -103.15094 | 35979 ft | 454 kts | 278° |
| 2026-04-25 00:03 | 45.27704 | -103.23927 | 35970 ft | 454 kts | 278° |
| 2026-04-25 00:03 | 45.28792 | -103.32775 | 35970 ft | 455 kts | 278° |
| 2026-04-25 00:04 | 45.29867 | -103.41575 | 35978 ft | 454 kts | 278° |
| 2026-04-25 00:04 | 45.30940 | -103.50416 | 35966 ft | 454 kts | 278° |
| 2026-04-25 00:05 | 45.32006 | -103.59259 | 35974 ft | 455 kts | 278° |
| 2026-04-25 00:05 | 45.33067 | -103.68121 | 35978 ft | 455 kts | 278° |
| 2026-04-25 00:06 | 45.34120 | -103.76987 | 35980 ft | 456 kts | 278° |
| 2026-04-25 00:06 | 45.35170 | -103.85875 | 35987 ft | 456 kts | 278° |
| 2026-04-25 00:07 | 45.36214 | -103.94779 | 35995 ft | 457 kts | 278° |
| 2026-04-25 00:07 | 45.37252 | -104.03697 | 35992 ft | 457 kts | 278° |
| 2026-04-25 00:08 | 45.38282 | -104.12604 | 35991 ft | 456 kts | 278° |
| 2026-04-25 00:08 | 45.39302 | -104.21499 | 35993 ft | 456 kts | 278° |
| 2026-04-25 00:09 | 45.40318 | -104.30409 | 36002 ft | 457 kts | 278° |
| 2026-04-25 00:09 | 45.41328 | -104.39332 | 36002 ft | 457 kts | 278° |
| 2026-04-25 00:10 | 45.42325 | -104.48211 | 36000 ft | 458 kts | 278° |
| 2026-04-25 00:10 | 45.43322 | -104.57152 | 36000 ft | 457 kts | 278° |
| 2026-04-25 00:11 | 45.44313 | -104.66102 | 36007 ft | 458 kts | 278° |
| 2026-04-25 00:11 | 45.45297 | -104.75072 | 36010 ft | 458 kts | 278° |
| 2026-04-25 00:12 | 45.46276 | -104.84052 | 36006 ft | 459 kts | 278° |
| 2026-04-25 00:12 | 45.47247 | -104.93039 | 35998 ft | 459 kts | 278° |
| 2026-04-25 00:13 | 45.48212 | -105.02028 | 36000 ft | 459 kts | 278° |
| 2026-04-25 00:13 | 45.49170 | -105.11028 | 36001 ft | 460 kts | 278° |
| 2026-04-25 00:14 | 45.50122 | -105.20039 | 36000 ft | 459 kts | 277° |
| 2026-04-25 00:14 | 45.51067 | -105.29049 | 35995 ft | 460 kts | 277° |
| 2026-04-25 00:15 | 45.52005 | -105.38069 | 35998 ft | 460 kts | 277° |
| 2026-04-25 00:15 | 45.52938 | -105.47111 | 36003 ft | 461 kts | 277° |
| 2026-04-25 00:16 | 45.53864 | -105.56161 | 36006 ft | 461 kts | 277° |
| 2026-04-25 00:16 | 45.54784 | -105.65220 | 36009 ft | 461 kts | 277° |
| 2026-04-25 00:17 | 45.55698 | -105.74290 | 36010 ft | 461 kts | 277° |
| 2026-04-25 00:17 | 45.56602 | -105.83346 | 36011 ft | 461 kts | 277° |
| 2026-04-25 00:18 | 45.57501 | -105.92409 | 36010 ft | 461 kts | 277° |
| 2026-04-25 00:18 | 45.58392 | -106.01483 | 36017 ft | 462 kts | 277° |
| 2026-04-25 00:19 | 45.59271 | -106.10503 | 36014 ft | 462 kts | 277° |
| 2026-04-25 00:19 | 45.60150 | -106.19601 | 36020 ft | 462 kts | 277° |
| 2026-04-25 00:20 | 45.61027 | -106.28765 | 36018 ft | 463 kts | 277° |
| 2026-04-25 00:20 | 45.61886 | -106.37807 | 36020 ft | 463 kts | 277° |
| 2026-04-25 00:21 | 45.62743 | -106.46913 | 36017 ft | 462 kts | 277° |
| 2026-04-25 00:21 | 45.63594 | -106.56025 | 36020 ft | 463 kts | 277° |
| 2026-04-25 00:22 | 45.64437 | -106.65147 | 36023 ft | 463 kts | 277° |
| 2026-04-25 00:22 | 45.65273 | -106.74261 | 36022 ft | 462 kts | 277° |
| 2026-04-25 00:23 | 45.66100 | -106.83367 | 36022 ft | 462 kts | 277° |
| 2026-04-25 00:23 | 45.66921 | -106.92482 | 36024 ft | 463 kts | 277° |
| 2026-04-25 00:24 | 45.67736 | -107.01620 | 36029 ft | 463 kts | 277° |
| 2026-04-25 00:24 | 45.68542 | -107.10743 | 36027 ft | 463 kts | 277° |
| 2026-04-25 00:25 | 45.69342 | -107.19880 | 36028 ft | 463 kts | 277° |
| 2026-04-25 00:25 | 45.70135 | -107.29014 | 36028 ft | 463 kts | 277° |
| 2026-04-25 00:26 | 45.70925 | -107.38215 | 36029 ft | 463 kts | 277° |
| 2026-04-25 00:26 | 45.71572 | -107.45809 | 36033 ft | 462 kts | 277° |
| 2026-04-25 00:27 | 45.72467 | -107.56427 | 36030 ft | 462 kts | 277° |
| 2026-04-25 00:27 | 45.73230 | -107.65562 | 36029 ft | 463 kts | 277° |
| 2026-04-25 00:28 | 45.73986 | -107.74712 | 36027 ft | 463 kts | 277° |
| 2026-04-25 00:28 | 45.74609 | -107.82323 | 36027 ft | 463 kts | 277° |
| 2026-04-25 00:29 | 45.75352 | -107.91475 | 36029 ft | 463 kts | 277° |
| 2026-04-25 00:29 | 45.76088 | -108.00641 | 36028 ft | 464 kts | 277° |
| 2026-04-25 00:30 | 45.76817 | -108.09811 | 36045 ft | 464 kts | 277° |
| 2026-04-25 00:30 | 45.77179 | -108.14408 | 36311 ft | 464 kts | 277° |
| 2026-04-25 00:30 | 45.77539 | -108.18997 | 36540 ft | 464 kts | 276° |
| 2026-04-25 00:31 | 45.77898 | -108.23590 | 36751 ft | 464 kts | 276° |
| 2026-04-25 00:31 | 45.78255 | -108.28189 | 36965 ft | 465 kts | 276° |
| 2026-04-25 00:31 | 45.78611 | -108.32799 | 37171 ft | 465 kts | 276° |
| 2026-04-25 00:31 | 45.78965 | -108.37411 | 37385 ft | 466 kts | 276° |
| 2026-04-25 00:32 | 45.79318 | -108.42024 | 37601 ft | 466 kts | 276° |
| 2026-04-25 00:32 | 45.79669 | -108.46648 | 37811 ft | 467 kts | 276° |
| 2026-04-25 00:32 | 45.80019 | -108.51271 | 38023 ft | 467 kts | 276° |
| 2026-04-25 00:32 | 45.80367 | -108.55910 | 38226 ft | 468 kts | 276° |
| 2026-04-25 00:33 | 45.80714 | -108.60542 | 38428 ft | 468 kts | 276° |
| 2026-04-25 00:33 | 45.80939 | -108.65195 | 38608 ft | 468 kts | 272° |
| 2026-04-25 00:33 | 45.81072 | -108.69860 | 38765 ft | 469 kts | 272° |
| 2026-04-25 00:33 | 45.81218 | -108.74527 | 38935 ft | 469 kts | 272° |
| 2026-04-25 00:34 | 45.81360 | -108.79202 | 39106 ft | 469 kts | 272° |
| 2026-04-25 00:34 | 45.81491 | -108.83873 | 39274 ft | 469 kts | 272° |
| 2026-04-25 00:34 | 45.81620 | -108.88550 | 39439 ft | 469 kts | 272° |
| 2026-04-25 00:34 | 45.81753 | -108.93224 | 39602 ft | 470 kts | 272° |
| 2026-04-25 00:35 | 45.81884 | -108.97904 | 39741 ft | 470 kts | 272° |
| 2026-04-25 00:35 | 45.82011 | -109.02591 | 39880 ft | 471 kts | 272° |
| 2026-04-25 00:35 | 45.82136 | -109.07289 | 40004 ft | 472 kts | 272° |
| 2026-04-25 00:35 | 45.82261 | -109.12010 | 39995 ft | 475 kts | 272° |
| 2026-04-25 00:36 | 45.82505 | -109.21463 | 39991 ft | 472 kts | 272° |
| 2026-04-25 00:36 | 45.82737 | -109.30800 | 39987 ft | 470 kts | 272° |
| 2026-04-25 00:37 | 45.82963 | -109.40155 | 39986 ft | 470 kts | 272° |
| 2026-04-25 00:37 | 45.83181 | -109.49533 | 39991 ft | 470 kts | 272° |
| 2026-04-25 00:38 | 45.83392 | -109.58889 | 39989 ft | 470 kts | 272° |
| 2026-04-25 00:38 | 45.83594 | -109.68240 | 39993 ft | 470 kts | 272° |
| 2026-04-25 00:39 | 45.83789 | -109.77610 | 39996 ft | 470 kts | 272° |
| 2026-04-25 00:39 | 45.83977 | -109.86977 | 40001 ft | 470 kts | 272° |
| 2026-04-25 00:40 | 45.84157 | -109.96340 | 40006 ft | 470 kts | 272° |
| 2026-04-25 00:40 | 45.84329 | -110.05712 | 40001 ft | 470 kts | 272° |
| 2026-04-25 00:41 | 45.84494 | -110.15087 | 40000 ft | 471 kts | 272° |
| 2026-04-25 00:41 | 45.84651 | -110.24472 | 39993 ft | 471 kts | 272° |
| 2026-04-25 00:42 | 45.84801 | -110.33852 | 39989 ft | 470 kts | 272° |
| 2026-04-25 00:42 | 45.84942 | -110.43225 | 39988 ft | 470 kts | 272° |
| 2026-04-25 00:43 | 45.85075 | -110.52553 | 39995 ft | 470 kts | 272° |
| 2026-04-25 00:43 | 45.85203 | -110.61989 | 40003 ft | 470 kts | 271° |
| 2026-04-25 00:44 | 45.85321 | -110.71314 | 40023 ft | 471 kts | 271° |
| 2026-04-25 00:44 | 45.85432 | -110.80709 | 40038 ft | 472 kts | 271° |
| 2026-04-25 00:45 | 45.85536 | -110.90125 | 40023 ft | 472 kts | 271° |
| 2026-04-25 00:45 | 45.85632 | -110.99530 | 40008 ft | 471 kts | 271° |
| 2026-04-25 00:46 | 45.85720 | -111.08926 | 39990 ft | 471 kts | 271° |
| 2026-04-25 00:47 | 45.85838 | -111.23012 | 39996 ft | 471 kts | 271° |
| 2026-04-25 00:47 | 45.85907 | -111.32412 | 40008 ft | 472 kts | 271° |
| 2026-04-25 00:48 | 45.85968 | -111.41819 | 40028 ft | 472 kts | 271° |
| 2026-04-25 00:48 | 45.86021 | -111.51226 | 40037 ft | 471 kts | 271° |
| 2026-04-25 00:49 | 45.86067 | -111.60617 | 40062 ft | 471 kts | 271° |
| 2026-04-25 00:49 | 45.86105 | -111.69990 | 40063 ft | 470 kts | 271° |
| 2026-04-25 00:50 | 45.86135 | -111.79308 | 40067 ft | 470 kts | 271° |
| 2026-04-25 00:50 | 45.86158 | -111.88696 | 40070 ft | 470 kts | 271° |
| 2026-04-25 00:51 | 45.86173 | -111.98086 | 40072 ft | 470 kts | 271° |
| 2026-04-25 00:51 | 45.86180 | -112.07480 | 40052 ft | 471 kts | 271° |
| 2026-04-25 00:52 | 45.86180 | -112.16874 | 40032 ft | 471 kts | 271° |
| 2026-04-25 00:52 | 45.86224 | -112.26269 | 40013 ft | 471 kts | 271° |
| 2026-04-25 00:53 | 45.86270 | -112.35659 | 39998 ft | 471 kts | 271° |
| 2026-04-25 00:53 | 45.86297 | -112.45064 | 39989 ft | 471 kts | 271° |
| 2026-04-25 00:54 | 45.86326 | -112.54394 | 39997 ft | 471 kts | 271° |
| 2026-04-25 00:54 | 45.86340 | -112.63771 | 39996 ft | 470 kts | 271° |
| 2026-04-25 00:55 | 45.86351 | -112.73147 | 40026 ft | 470 kts | 271° |
| 2026-04-25 00:55 | 45.86352 | -112.82517 | 40047 ft | 470 kts | 271° |
| 2026-04-25 00:56 | 45.86346 | -112.91892 | 40069 ft | 470 kts | 271° |
| 2026-04-25 00:56 | 45.86332 | -113.01267 | 40095 ft | 470 kts | 271° |
| 2026-04-25 00:57 | 45.86311 | -113.10659 | 40098 ft | 470 kts | 271° |
| 2026-04-25 00:57 | 45.86282 | -113.20054 | 40098 ft | 470 kts | 271° |
| 2026-04-25 00:58 | 45.86245 | -113.29430 | 40096 ft | 470 kts | 271° |
| 2026-04-25 00:58 | 45.86201 | -113.38812 | 40099 ft | 470 kts | 270° |
| 2026-04-25 00:59 | 45.86149 | -113.48180 | 40099 ft | 469 kts | 270° |
| 2026-04-25 00:59 | 45.86090 | -113.57489 | 40096 ft | 470 kts | 270° |
| 2026-04-25 01:00 | 45.86022 | -113.66865 | 40098 ft | 470 kts | 270° |
| 2026-04-25 01:00 | 45.85947 | -113.76246 | 40086 ft | 470 kts | 270° |
| 2026-04-25 01:01 | 45.85864 | -113.85636 | 40091 ft | 470 kts | 270° |
| 2026-04-25 01:01 | 45.85774 | -113.95019 | 40082 ft | 471 kts | 270° |
| 2026-04-25 01:02 | 45.85676 | -114.04412 | 40080 ft | 470 kts | 270° |
| 2026-04-25 01:02 | 45.85570 | -114.13793 | 40080 ft | 470 kts | 270° |
| 2026-04-25 01:03 | 45.85456 | -114.23162 | 40085 ft | 470 kts | 270° |
| 2026-04-25 01:03 | 45.85335 | -114.32552 | 40094 ft | 471 kts | 270° |
| 2026-04-25 01:04 | 45.85206 | -114.41962 | 40101 ft | 472 kts | 270° |
| 2026-04-25 01:04 | 45.85069 | -114.51377 | 40103 ft | 472 kts | 270° |
| 2026-04-25 01:05 | 45.84925 | -114.60719 | 40104 ft | 471 kts | 270° |
| 2026-04-25 01:05 | 45.84773 | -114.70115 | 40100 ft | 471 kts | 270° |
| 2026-04-25 01:06 | 45.84613 | -114.79516 | 40107 ft | 472 kts | 270° |
| 2026-04-25 01:06 | 45.84445 | -114.88935 | 40111 ft | 473 kts | 270° |
| 2026-04-25 01:07 | 45.84269 | -114.98364 | 40112 ft | 473 kts | 270° |
| 2026-04-25 01:07 | 45.84086 | -115.07785 | 40108 ft | 472 kts | 270° |
| 2026-04-25 01:08 | 45.83895 | -115.17178 | 40112 ft | 472 kts | 269° |
| 2026-04-25 01:08 | 45.83695 | -115.26591 | 40111 ft | 472 kts | 269° |
| 2026-04-25 01:09 | 45.83488 | -115.36010 | 40107 ft | 472 kts | 269° |
| 2026-04-25 01:09 | 45.83273 | -115.45415 | 40104 ft | 472 kts | 269° |
| 2026-04-25 01:10 | 45.83051 | -115.54812 | 40102 ft | 472 kts | 269° |
| 2026-04-25 01:10 | 45.82820 | -115.64217 | 40096 ft | 472 kts | 269° |
| 2026-04-25 01:11 | 45.82582 | -115.73609 | 40085 ft | 471 kts | 269° |
| 2026-04-25 01:11 | 45.82337 | -115.83000 | 40075 ft | 472 kts | 269° |
| 2026-04-25 01:12 | 45.82083 | -115.92392 | 40071 ft | 472 kts | 269° |
| 2026-04-25 01:12 | 45.81823 | -116.01801 | 40064 ft | 472 kts | 269° |
| 2026-04-25 01:13 | 45.81553 | -116.11205 | 40055 ft | 472 kts | 269° |
| 2026-04-25 01:13 | 45.81276 | -116.20611 | 40060 ft | 472 kts | 269° |
| 2026-04-25 01:14 | 45.80994 | -116.29946 | 40063 ft | 472 kts | 269° |
| 2026-04-25 01:14 | 45.80748 | -116.37885 | 40060 ft | 472 kts | 269° |
| 2026-04-25 01:15 | 45.80449 | -116.47281 | 40065 ft | 472 kts | 269° |
| 2026-04-25 01:15 | 45.80145 | -116.56621 | 40065 ft | 472 kts | 269° |
| 2026-04-25 01:16 | 45.79829 | -116.66083 | 40059 ft | 472 kts | 269° |
| 2026-04-25 01:16 | 45.79507 | -116.75483 | 40069 ft | 473 kts | 269° |
| 2026-04-25 01:17 | 45.79177 | -116.84902 | 40073 ft | 473 kts | 269° |
| 2026-04-25 01:17 | 45.78841 | -116.94256 | 40072 ft | 473 kts | 269° |
| 2026-04-25 01:18 | 45.78495 | -117.03673 | 40076 ft | 474 kts | 269° |
| 2026-04-25 01:18 | 45.78142 | -117.13097 | 40073 ft | 474 kts | 269° |
| 2026-04-25 01:19 | 45.77779 | -117.22542 | 40078 ft | 475 kts | 269° |
| 2026-04-25 01:19 | 45.77410 | -117.31982 | 40078 ft | 475 kts | 269° |
| 2026-04-25 01:20 | 45.77031 | -117.41446 | 40085 ft | 476 kts | 269° |
| 2026-04-25 01:20 | 45.76644 | -117.50919 | 40080 ft | 477 kts | 269° |
| 2026-04-25 01:21 | 45.76249 | -117.60403 | 40079 ft | 477 kts | 269° |
| 2026-04-25 01:21 | 45.75845 | -117.69887 | 40079 ft | 478 kts | 269° |
| 2026-04-25 01:22 | 45.75434 | -117.79387 | 40090 ft | 478 kts | 268° |
| 2026-04-25 01:22 | 45.75013 | -117.88892 | 40094 ft | 479 kts | 268° |
| 2026-04-25 01:23 | 45.74587 | -117.98356 | 40088 ft | 480 kts | 268° |
| 2026-04-25 01:23 | 45.74149 | -118.07905 | 40097 ft | 481 kts | 268° |
| 2026-04-25 01:24 | 45.73702 | -118.17476 | 40085 ft | 481 kts | 268° |
| 2026-04-25 01:24 | 45.73247 | -118.27036 | 40090 ft | 481 kts | 268° |
| 2026-04-25 01:25 | 45.72784 | -118.36585 | 40085 ft | 481 kts | 268° |
| 2026-04-25 01:25 | 45.72314 | -118.46134 | 40063 ft | 481 kts | 268° |
| 2026-04-25 01:26 | 45.71836 | -118.55679 | 40059 ft | 481 kts | 268° |
| 2026-04-25 01:26 | 45.71349 | -118.65236 | 40059 ft | 481 kts | 268° |
| 2026-04-25 01:27 | 45.70855 | -118.74786 | 40063 ft | 481 kts | 268° |
| 2026-04-25 01:27 | 45.70357 | -118.84258 | 40052 ft | 480 kts | 268° |
| 2026-04-25 01:28 | 45.69996 | -118.98512 | 40052 ft | 476 kts | 274° |
| 2026-04-25 01:28 | 45.70243 | -119.07992 | 40077 ft | 477 kts | 274° |
| 2026-04-25 01:29 | 45.70518 | -119.17473 | 40083 ft | 477 kts | 275° |
| 2026-04-25 01:29 | 45.70770 | -119.26960 | 40084 ft | 476 kts | 274° |
| 2026-04-25 01:30 | 45.71019 | -119.36417 | 40084 ft | 475 kts | 275° |
| 2026-04-25 01:30 | 45.71259 | -119.45843 | 40081 ft | 473 kts | 274° |
| 2026-04-25 01:31 | 45.71489 | -119.55249 | 40080 ft | 472 kts | 275° |
| 2026-04-25 01:31 | 45.71712 | -119.64641 | 40076 ft | 472 kts | 274° |
| 2026-04-25 01:32 | 45.71926 | -119.73961 | 40076 ft | 471 kts | 274° |
| 2026-04-25 01:32 | 45.72132 | -119.83316 | 40068 ft | 470 kts | 274° |
| 2026-04-25 01:33 | 45.72327 | -119.92651 | 40065 ft | 469 kts | 274° |
| 2026-04-25 01:33 | 45.72515 | -120.01973 | 40062 ft | 468 kts | 274° |
| 2026-04-25 01:34 | 45.72695 | -120.11280 | 40059 ft | 467 kts | 274° |
| 2026-04-25 01:34 | 45.72867 | -120.20576 | 40054 ft | 467 kts | 274° |
| 2026-04-25 01:35 | 45.73031 | -120.29868 | 40049 ft | 466 kts | 274° |
| 2026-04-25 01:35 | 45.73188 | -120.39131 | 40051 ft | 465 kts | 274° |
| 2026-04-25 01:36 | 45.73337 | -120.48397 | 40048 ft | 466 kts | 274° |
| 2026-04-25 01:36 | 45.73479 | -120.57651 | 40044 ft | 465 kts | 274° |
| 2026-04-25 01:37 | 45.73613 | -120.66906 | 40047 ft | 465 kts | 274° |
| 2026-04-25 01:37 | 45.73739 | -120.76147 | 40042 ft | 464 kts | 274° |
| 2026-04-25 01:38 | 45.73857 | -120.85323 | 40040 ft | 464 kts | 274° |
| 2026-04-25 01:38 | 45.73968 | -120.94573 | 40032 ft | 465 kts | 274° |
| 2026-04-25 01:39 | 45.74072 | -121.03812 | 40032 ft | 464 kts | 274° |
| 2026-04-25 01:39 | 45.74169 | -121.13043 | 40036 ft | 463 kts | 273° |
| 2026-04-25 01:40 | 45.74258 | -121.22261 | 40029 ft | 464 kts | 273° |
| 2026-04-25 01:40 | 45.74339 | -121.31496 | 40028 ft | 464 kts | 273° |
| 2026-04-25 01:41 | 45.74413 | -121.40720 | 40029 ft | 463 kts | 273° |
| 2026-04-25 01:41 | 45.74480 | -121.49949 | 40026 ft | 463 kts | 273° |
| 2026-04-25 01:42 | 45.74539 | -121.59155 | 40028 ft | 463 kts | 273° |
| 2026-04-25 01:42 | 45.74591 | -121.68388 | 40025 ft | 463 kts | 273° |
| 2026-04-25 01:43 | 45.74635 | -121.77556 | 40018 ft | 464 kts | 273° |
| 2026-04-25 01:43 | 45.74671 | -121.86789 | 40013 ft | 464 kts | 273° |
| 2026-04-25 01:44 | 45.74713 | -121.96039 | 40003 ft | 465 kts | 273° |
| 2026-04-25 01:44 | 45.74744 | -122.05313 | 39999 ft | 466 kts | 273° |
| 2026-04-25 01:45 | 45.74769 | -122.14570 | 39997 ft | 465 kts | 273° |
| 2026-04-25 01:45 | 45.74786 | -122.23840 | 40000 ft | 466 kts | 272° |
| 2026-04-25 01:46 | 45.74795 | -122.33116 | 39996 ft | 466 kts | 272° |
| 2026-04-25 01:46 | 45.74798 | -122.42402 | 39993 ft | 466 kts | 272° |
| 2026-04-25 01:47 | 45.74530 | -122.51666 | 40049 ft | 468 kts | 262° |
| 2026-04-25 01:47 | 45.72315 | -122.60509 | 40050 ft | 479 kts | 242° |
| 2026-04-25 01:48 | 45.70403 | -122.64426 | 40052 ft | 484 kts | 231° |
| 2026-04-25 01:48 | 45.68019 | -122.67850 | 40051 ft | 488 kts | 225° |
| 2026-04-25 01:48 | 45.62973 | -122.74345 | 40040 ft | 487 kts | 225° |
| 2026-04-25 01:49 | 45.57951 | -122.80757 | 40021 ft | 487 kts | 225° |
| 2026-04-25 01:49 | 45.52908 | -122.87211 | 40018 ft | 487 kts | 225° |
| 2026-04-25 01:50 | 45.47858 | -122.93634 | 40015 ft | 486 kts | 225° |
| 2026-04-25 01:50 | 45.42812 | -123.00053 | 40014 ft | 486 kts | 225° |
| 2026-04-25 01:51 | 45.37761 | -123.06451 | 40009 ft | 486 kts | 225° |
| 2026-04-25 01:51 | 45.32715 | -123.12833 | 40000 ft | 486 kts | 225° |
| 2026-04-25 01:52 | 45.27662 | -123.19205 | 39994 ft | 486 kts | 225° |
| 2026-04-25 01:52 | 45.22603 | -123.25571 | 39989 ft | 485 kts | 225° |
| 2026-04-25 01:53 | 45.17548 | -123.31914 | 39999 ft | 485 kts | 225° |
| 2026-04-25 01:53 | 45.12490 | -123.38247 | 39998 ft | 485 kts | 225° |
| 2026-04-25 01:54 | 45.07464 | -123.44524 | 39998 ft | 485 kts | 225° |
| 2026-04-25 01:54 | 45.02402 | -123.50830 | 39993 ft | 484 kts | 225° |
| 2026-04-25 01:55 | 44.97341 | -123.57119 | 39990 ft | 484 kts | 225° |
| 2026-04-25 01:55 | 44.92294 | -123.63376 | 39999 ft | 483 kts | 225° |
| 2026-04-25 01:56 | 44.87242 | -123.69624 | 40005 ft | 483 kts | 225° |
| 2026-04-25 01:56 | 44.82184 | -123.75864 | 40007 ft | 483 kts | 225° |
| 2026-04-25 01:57 | 44.74601 | -123.85191 | 40018 ft | 483 kts | 224° |
| 2026-04-25 01:58 | 44.69536 | -123.91402 | 40024 ft | 483 kts | 224° |
| 2026-04-25 01:58 | 44.64471 | -123.97598 | 40029 ft | 483 kts | 224° |
| 2026-04-25 01:59 | 44.59403 | -124.03785 | 40031 ft | 482 kts | 225° |
| 2026-04-25 01:59 | 44.57115 | -124.07167 | 40077 ft | 476 kts | 236° |
| 2026-04-25 01:59 | 44.55281 | -124.10940 | 40051 ft | 475 kts | 240° |
| 2026-04-25 02:00 | 44.51647 | -124.18700 | 40041 ft | 477 kts | 240° |
| 2026-04-25 02:00 | 44.47997 | -124.26538 | 40037 ft | 477 kts | 240° |
| 2026-04-25 02:01 | 44.44973 | -124.32993 | 40035 ft | 477 kts | 240° |
| 2026-04-25 02:01 | 44.40738 | -124.42014 | 40031 ft | 476 kts | 240° |
| 2026-04-25 02:02 | 44.37100 | -124.49743 | 40017 ft | 475 kts | 240° |
| 2026-04-25 02:02 | 44.34056 | -124.56194 | 40009 ft | 475 kts | 240° |
| 2026-04-25 02:03 | 44.30413 | -124.63897 | 40022 ft | 476 kts | 240° |
| 2026-04-25 02:03 | 44.26758 | -124.71602 | 40032 ft | 475 kts | 240° |
| 2026-04-25 02:04 | 44.23129 | -124.79236 | 40023 ft | 475 kts | 240° |
| 2026-04-25 02:04 | 44.19471 | -124.86907 | 40020 ft | 475 kts | 239° |
| 2026-04-25 02:05 | 44.15807 | -124.94572 | 40018 ft | 475 kts | 239° |
| 2026-04-25 02:05 | 44.12138 | -125.02227 | 40017 ft | 475 kts | 239° |
| 2026-04-25 02:06 | 44.08455 | -125.09890 | 40024 ft | 476 kts | 239° |
| 2026-04-25 02:06 | 44.04769 | -125.17538 | 40024 ft | 476 kts | 239° |
| 2026-04-25 02:07 | 44.01079 | -125.25177 | 40024 ft | 476 kts | 239° |
| 2026-04-25 02:07 | 43.97382 | -125.32811 | 40022 ft | 476 kts | 239° |
| 2026-04-25 02:08 | 43.93682 | -125.40428 | 40024 ft | 476 kts | 239° |
| 2026-04-25 02:08 | 43.90002 | -125.47987 | 40029 ft | 476 kts | 239° |
| 2026-04-25 02:09 | 43.86287 | -125.55596 | 40025 ft | 477 kts | 239° |
| 2026-04-25 02:09 | 43.82567 | -125.63197 | 40028 ft | 477 kts | 239° |
| 2026-04-25 02:10 | 43.78836 | -125.70800 | 40029 ft | 477 kts | 239° |
| 2026-04-25 02:10 | 43.75104 | -125.78384 | 40032 ft | 477 kts | 238° |
| 2026-04-25 02:11 | 43.71367 | -125.85961 | 40039 ft | 477 kts | 238° |
| 2026-04-25 02:11 | 43.67623 | -125.93529 | 40041 ft | 477 kts | 238° |
| 2026-04-25 02:12 | 43.63875 | -126.01090 | 40040 ft | 477 kts | 238° |
| 2026-04-25 02:12 | 43.60121 | -126.08639 | 40043 ft | 477 kts | 238° |
| 2026-04-25 02:13 | 43.56368 | -126.16172 | 40043 ft | 476 kts | 238° |
| 2026-04-25 02:13 | 43.52609 | -126.23694 | 40051 ft | 476 kts | 238° |
| 2026-04-25 02:14 | 43.48872 | -126.31156 | 40049 ft | 476 kts | 238° |
| 2026-04-25 02:14 | 43.45109 | -126.38645 | 40050 ft | 476 kts | 238° |
| 2026-04-25 02:15 | 43.41337 | -126.46139 | 40053 ft | 476 kts | 238° |
| 2026-04-25 02:15 | 43.37563 | -126.53615 | 40057 ft | 476 kts | 238° |
| 2026-04-25 02:16 | 43.33784 | -126.61083 | 40056 ft | 476 kts | 238° |
| 2026-04-25 02:16 | 43.30031 | -126.68579 | 40062 ft | 474 kts | 244° |
| 2026-04-25 02:17 | 43.26846 | -126.76415 | 40075 ft | 474 kts | 243° |
| 2026-04-25 02:17 | 43.23613 | -126.84301 | 40077 ft | 474 kts | 243° |
| 2026-04-25 02:18 | 43.20388 | -126.92187 | 40083 ft | 474 kts | 243° |
| 2026-04-25 02:18 | 43.17148 | -127.00064 | 40081 ft | 474 kts | 243° |
| 2026-04-25 02:19 | 43.13909 | -127.07929 | 40082 ft | 474 kts | 243° |
| 2026-04-25 02:19 | 43.10656 | -127.15802 | 40081 ft | 475 kts | 243° |
| 2026-04-25 02:20 | 43.07404 | -127.23654 | 40082 ft | 475 kts | 243° |
| 2026-04-25 02:20 | 43.04141 | -127.31508 | 40077 ft | 475 kts | 243° |
| 2026-04-25 02:21 | 43.00871 | -127.39361 | 40083 ft | 475 kts | 243° |
| 2026-04-25 02:21 | 42.97600 | -127.47192 | 40087 ft | 475 kts | 243° |
| 2026-04-25 02:22 | 42.94321 | -127.55025 | 40084 ft | 475 kts | 242° |
| 2026-04-25 02:22 | 42.91035 | -127.62851 | 40085 ft | 475 kts | 242° |
| 2026-04-25 02:23 | 42.87759 | -127.70630 | 40085 ft | 475 kts | 242° |
| 2026-04-25 02:23 | 42.84461 | -127.78444 | 40091 ft | 476 kts | 242° |
| 2026-04-25 02:24 | 42.81156 | -127.86250 | 40089 ft | 476 kts | 242° |
| 2026-04-25 02:24 | 42.77843 | -127.94058 | 40092 ft | 476 kts | 242° |
| 2026-04-25 02:25 | 42.74522 | -128.01863 | 40091 ft | 476 kts | 242° |
| 2026-04-25 02:25 | 42.71193 | -128.09665 | 40095 ft | 477 kts | 242° |
| 2026-04-25 02:26 | 42.67861 | -128.17453 | 40099 ft | 477 kts | 242° |
| 2026-04-25 02:26 | 42.64520 | -128.25243 | 40099 ft | 477 kts | 241° |
| 2026-04-25 02:27 | 42.61172 | -128.33028 | 40101 ft | 477 kts | 242° |
| 2026-04-25 02:27 | 42.57818 | -128.40806 | 40101 ft | 477 kts | 241° |
| 2026-04-25 02:28 | 42.54460 | -128.48573 | 40102 ft | 478 kts | 241° |
| 2026-04-25 02:28 | 42.51088 | -128.56351 | 40103 ft | 478 kts | 241° |
| 2026-04-25 02:29 | 42.47717 | -128.64106 | 40105 ft | 478 kts | 241° |
| 2026-04-25 02:29 | 42.44339 | -128.71860 | 40108 ft | 478 kts | 241° |
| 2026-04-25 02:30 | 42.40954 | -128.79607 | 40109 ft | 478 kts | 240° |
| 2026-04-25 02:30 | 42.37585 | -128.87295 | 40111 ft | 478 kts | 240° |
| 2026-04-25 02:31 | 42.34194 | -128.95017 | 40111 ft | 477 kts | 240° |
| 2026-04-25 02:31 | 42.30802 | -129.02720 | 40114 ft | 477 kts | 240° |
| 2026-04-25 02:32 | 42.27404 | -129.10415 | 40113 ft | 477 kts | 240° |
| 2026-04-25 02:32 | 42.24004 | -129.18096 | 40115 ft | 476 kts | 240° |
| 2026-04-25 02:33 | 42.20604 | -129.25758 | 40115 ft | 476 kts | 240° |
| 2026-04-25 02:33 | 42.17198 | -129.33413 | 40117 ft | 476 kts | 240° |
| 2026-04-25 02:34 | 42.13787 | -129.41059 | 40116 ft | 476 kts | 240° |
| 2026-04-25 02:34 | 42.10374 | -129.48692 | 40121 ft | 475 kts | 240° |
| 2026-04-25 02:35 | 42.06957 | -129.56314 | 40118 ft | 475 kts | 240° |
| 2026-04-25 02:35 | 42.03530 | -129.63937 | 40123 ft | 475 kts | 239° |
| 2026-04-25 02:36 | 42.00121 | -129.71500 | 40125 ft | 475 kts | 239° |
| 2026-04-25 02:36 | 41.96671 | -129.79137 | 40126 ft | 475 kts | 239° |
| 2026-04-25 02:37 | 41.93254 | -129.86681 | 40126 ft | 475 kts | 239° |
| 2026-04-25 02:37 | 41.89817 | -129.94250 | 40130 ft | 475 kts | 239° |
| 2026-04-25 02:38 | 41.86367 | -130.01827 | 40131 ft | 475 kts | 239° |
| 2026-04-25 02:38 | 41.82922 | -130.09378 | 40135 ft | 474 kts | 239° |
| 2026-04-25 02:39 | 41.79470 | -130.16922 | 40131 ft | 474 kts | 239° |
| 2026-04-25 02:39 | 41.76015 | -130.24455 | 40130 ft | 475 kts | 239° |
| 2026-04-25 02:40 | 41.72557 | -130.31973 | 40135 ft | 475 kts | 239° |
| 2026-04-25 02:40 | 41.69092 | -130.39491 | 40138 ft | 474 kts | 239° |
| 2026-04-25 02:41 | 41.65621 | -130.47000 | 40139 ft | 474 kts | 239° |
| 2026-04-25 02:41 | 41.62149 | -130.54497 | 40141 ft | 474 kts | 239° |
| 2026-04-25 02:42 | 41.58697 | -130.61928 | 40142 ft | 473 kts | 239° |
| 2026-04-25 02:42 | 41.55222 | -130.69394 | 40140 ft | 473 kts | 239° |
| 2026-04-25 02:43 | 41.51746 | -130.76840 | 40143 ft | 473 kts | 239° |
| 2026-04-25 02:43 | 41.48268 | -130.84274 | 40144 ft | 472 kts | 239° |
| 2026-04-25 02:44 | 41.44783 | -130.91704 | 40142 ft | 472 kts | 239° |
| 2026-04-25 02:44 | 41.41296 | -130.99121 | 40149 ft | 473 kts | 238° |
| 2026-04-25 02:45 | 41.37801 | -131.06536 | 40149 ft | 472 kts | 238° |
| 2026-04-25 02:45 | 41.34305 | -131.13937 | 40150 ft | 472 kts | 238° |
| 2026-04-25 02:46 | 41.30801 | -131.21335 | 40163 ft | 472 kts | 238° |
| 2026-04-25 02:46 | 41.27298 | -131.28714 | 40161 ft | 472 kts | 238° |
| 2026-04-25 02:47 | 41.23792 | -131.36080 | 40156 ft | 471 kts | 238° |
| 2026-04-25 02:47 | 41.20287 | -131.43429 | 40175 ft | 471 kts | 238° |
| 2026-04-25 02:48 | 41.16778 | -131.50768 | 40156 ft | 470 kts | 238° |
| 2026-04-25 02:48 | 41.13269 | -131.58087 | 40161 ft | 470 kts | 238° |
| 2026-04-25 02:49 | 41.09756 | -131.65400 | 40167 ft | 470 kts | 238° |
| 2026-04-25 02:49 | 41.06262 | -131.72652 | 40169 ft | 470 kts | 238° |
| 2026-04-25 02:50 | 41.02737 | -131.79953 | 40177 ft | 470 kts | 238° |
| 2026-04-25 02:50 | 40.99210 | -131.87242 | 40180 ft | 470 kts | 238° |
| 2026-04-25 02:51 | 40.95672 | -131.94537 | 40174 ft | 470 kts | 238° |
| 2026-04-25 02:51 | 40.92712 | -132.00625 | 40186 ft | 469 kts | 238° |
| 2026-04-25 02:52 | 40.89172 | -132.07892 | 40185 ft | 470 kts | 238° |
| 2026-04-25 02:52 | 40.85652 | -132.15100 | 40170 ft | 470 kts | 238° |
| 2026-04-25 02:53 | 40.82104 | -132.22349 | 40184 ft | 469 kts | 238° |
| 2026-04-25 02:53 | 40.78558 | -132.29576 | 40187 ft | 469 kts | 238° |
| 2026-04-25 02:54 | 40.75006 | -132.36799 | 40182 ft | 469 kts | 238° |
| 2026-04-25 02:54 | 40.71450 | -132.44014 | 40184 ft | 469 kts | 238° |
| 2026-04-25 02:55 | 40.67893 | -132.51212 | 40190 ft | 469 kts | 238° |
| 2026-04-25 02:55 | 40.64327 | -132.58413 | 40189 ft | 469 kts | 238° |
| 2026-04-25 02:56 | 40.60759 | -132.65602 | 40190 ft | 469 kts | 238° |
| 2026-04-25 02:56 | 40.57184 | -132.72787 | 40194 ft | 469 kts | 238° |
| 2026-04-25 02:57 | 40.53607 | -132.79960 | 40199 ft | 470 kts | 237° |
| 2026-04-25 02:57 | 40.50012 | -132.87154 | 40184 ft | 470 kts | 237° |
| 2026-04-25 02:58 | 40.46416 | -132.94332 | 40198 ft | 470 kts | 237° |
| 2026-04-25 02:58 | 40.42816 | -133.01500 | 40198 ft | 470 kts | 237° |
| 2026-04-25 02:59 | 40.39231 | -133.08624 | 40208 ft | 470 kts | 237° |
| 2026-04-25 02:59 | 40.35617 | -133.15787 | 40206 ft | 471 kts | 237° |
| 2026-04-25 03:00 | 40.31995 | -133.22951 | 40206 ft | 471 kts | 237° |
| 2026-04-25 03:00 | 40.28365 | -133.30114 | 40205 ft | 471 kts | 237° |
| 2026-04-25 03:01 | 40.24734 | -133.37263 | 40215 ft | 472 kts | 237° |
| 2026-04-25 03:01 | 40.21098 | -133.44406 | 40210 ft | 471 kts | 237° |
| 2026-04-25 03:02 | 40.17454 | -133.51547 | 40205 ft | 471 kts | 237° |
| 2026-04-25 03:02 | 40.13810 | -133.58673 | 40215 ft | 472 kts | 237° |
| 2026-04-25 03:03 | 40.10161 | -133.65793 | 40205 ft | 471 kts | 237° |
| 2026-04-25 03:03 | 40.06504 | -133.72912 | 40215 ft | 472 kts | 237° |
| 2026-04-25 03:04 | 40.02847 | -133.80013 | 40217 ft | 471 kts | 237° |
| 2026-04-25 03:04 | 39.99203 | -133.87075 | 40218 ft | 473 kts | 237° |
| 2026-04-25 03:05 | 39.93683 | -133.97740 | 40219 ft | 473 kts | 237° |
| 2026-04-25 03:05 | 39.89994 | -134.04849 | 40225 ft | 474 kts | 236° |
| 2026-04-25 03:06 | 39.86298 | -134.11954 | 40226 ft | 474 kts | 236° |
| 2026-04-25 03:06 | 39.82595 | -134.19058 | 40224 ft | 474 kts | 236° |
| 2026-04-25 03:07 | 39.78888 | -134.26154 | 40230 ft | 474 kts | 236° |
| 2026-04-25 03:07 | 39.75167 | -134.33258 | 40227 ft | 475 kts | 236° |
| 2026-04-25 03:08 | 39.71444 | -134.40352 | 40233 ft | 476 kts | 236° |
| 2026-04-25 03:08 | 39.67731 | -134.47411 | 40241 ft | 476 kts | 236° |
| 2026-04-25 03:09 | 39.63991 | -134.54505 | 40232 ft | 476 kts | 236° |
| 2026-04-25 03:09 | 39.60244 | -134.61596 | 40233 ft | 477 kts | 236° |
| 2026-04-25 03:10 | 39.56489 | -134.68688 | 40240 ft | 476 kts | 236° |
| 2026-04-25 03:10 | 39.52735 | -134.75761 | 40234 ft | 476 kts | 236° |
| 2026-04-25 03:11 | 39.48982 | -134.82816 | 40239 ft | 476 kts | 236° |
| 2026-04-25 03:11 | 39.45220 | -134.89873 | 40245 ft | 476 kts | 236° |
| 2026-04-25 03:12 | 39.41454 | -134.96923 | 40241 ft | 476 kts | 236° |
| 2026-04-25 03:12 | 39.37712 | -135.03920 | 40243 ft | 476 kts | 236° |
| 2026-04-25 03:13 | 39.33940 | -135.10959 | 40251 ft | 476 kts | 236° |
| 2026-04-25 03:13 | 39.30164 | -135.17990 | 40250 ft | 476 kts | 236° |
| 2026-04-25 03:14 | 39.26381 | -135.25019 | 40251 ft | 476 kts | 236° |
| 2026-04-25 03:14 | 39.22597 | -135.32033 | 40256 ft | 476 kts | 236° |
| 2026-04-25 03:15 | 39.18806 | -135.39046 | 40255 ft | 476 kts | 236° |
| 2026-04-25 03:15 | 39.15039 | -135.46000 | 40253 ft | 476 kts | 236° |
| 2026-04-25 03:16 | 39.11243 | -135.52990 | 40255 ft | 476 kts | 236° |
| 2026-04-25 03:16 | 39.07442 | -135.59977 | 40258 ft | 477 kts | 236° |
| 2026-04-25 03:17 | 39.03635 | -135.66956 | 40253 ft | 477 kts | 236° |
| 2026-04-25 03:17 | 38.99822 | -135.73931 | 40253 ft | 477 kts | 236° |
| 2026-04-25 03:18 | 38.96004 | -135.80907 | 40258 ft | 477 kts | 236° |
| 2026-04-25 03:18 | 38.92175 | -135.87879 | 40261 ft | 478 kts | 237° |
| 2026-04-25 03:19 | 38.88341 | -135.94851 | 40261 ft | 478 kts | 236° |
| 2026-04-25 03:19 | 38.84496 | -136.01823 | 40260 ft | 479 kts | 237° |
| 2026-04-25 03:20 | 38.80645 | -136.08797 | 40257 ft | 479 kts | 237° |
| 2026-04-25 03:20 | 38.76783 | -136.15772 | 40259 ft | 480 kts | 237° |
| 2026-04-25 03:21 | 38.72908 | -136.22755 | 40265 ft | 480 kts | 237° |
| 2026-04-25 03:21 | 38.69055 | -136.29685 | 40260 ft | 481 kts | 237° |
| 2026-04-25 03:22 | 38.65166 | -136.36662 | 40255 ft | 482 kts | 237° |
| 2026-04-25 03:22 | 38.61271 | -136.43638 | 40258 ft | 482 kts | 237° |
| 2026-04-25 03:23 | 38.57365 | -136.50618 | 40263 ft | 482 kts | 237° |
| 2026-04-25 03:23 | 38.53458 | -136.57585 | 40262 ft | 482 kts | 237° |
| 2026-04-25 03:24 | 38.49544 | -136.64547 | 40263 ft | 483 kts | 237° |
| 2026-04-25 03:24 | 38.45623 | -136.71509 | 40264 ft | 483 kts | 236° |
| 2026-04-25 03:25 | 38.41694 | -136.78471 | 40262 ft | 484 kts | 236° |
| 2026-04-25 03:25 | 38.37757 | -136.85428 | 40266 ft | 484 kts | 236° |
| 2026-04-25 03:26 | 38.33846 | -136.92330 | 40264 ft | 483 kts | 237° |
| 2026-04-25 03:26 | 38.29906 | -136.99265 | 40270 ft | 483 kts | 236° |
| 2026-04-25 03:27 | 38.25962 | -137.06195 | 40274 ft | 483 kts | 236° |
| 2026-04-25 03:27 | 38.22011 | -137.13118 | 40274 ft | 483 kts | 236° |
| 2026-04-25 03:28 | 38.18056 | -137.20038 | 40271 ft | 484 kts | 236° |
| 2026-04-25 03:28 | 38.14093 | -137.26954 | 40278 ft | 484 kts | 236° |
| 2026-04-25 03:29 | 38.10123 | -137.33871 | 40275 ft | 484 kts | 236° |
| 2026-04-25 03:29 | 38.06158 | -137.40762 | 40277 ft | 484 kts | 236° |
| 2026-04-25 03:30 | 38.02188 | -137.47648 | 40275 ft | 483 kts | 237° |
| 2026-04-25 03:30 | 37.98236 | -137.54488 | 40276 ft | 483 kts | 237° |
| 2026-04-25 03:31 | 37.94263 | -137.61352 | 40275 ft | 483 kts | 237° |
| 2026-04-25 03:31 | 37.90280 | -137.68217 | 40278 ft | 483 kts | 237° |
| 2026-04-25 03:32 | 37.86300 | -137.75062 | 40276 ft | 482 kts | 237° |
| 2026-04-25 03:32 | 37.82319 | -137.81897 | 40283 ft | 482 kts | 237° |
| 2026-04-25 03:33 | 37.78337 | -137.88718 | 40284 ft | 482 kts | 237° |
| 2026-04-25 03:33 | 37.74352 | -137.95531 | 40289 ft | 482 kts | 237° |
| 2026-04-25 03:34 | 37.70359 | -138.02342 | 40286 ft | 482 kts | 237° |
| 2026-04-25 03:34 | 37.66396 | -138.09090 | 40286 ft | 481 kts | 237° |
| 2026-04-25 03:35 | 37.62407 | -138.15867 | 40292 ft | 481 kts | 237° |
| 2026-04-25 03:35 | 37.58415 | -138.22635 | 40295 ft | 481 kts | 237° |
| 2026-04-25 03:36 | 37.54421 | -138.29394 | 40297 ft | 480 kts | 237° |
| 2026-04-25 03:36 | 37.50430 | -138.36132 | 40295 ft | 480 kts | 237° |
| 2026-04-25 03:37 | 37.46435 | -138.42865 | 40289 ft | 479 kts | 237° |
| 2026-04-25 03:37 | 37.42441 | -138.49582 | 40291 ft | 478 kts | 237° |
| 2026-04-25 03:38 | 37.38453 | -138.56276 | 40293 ft | 478 kts | 237° |
| 2026-04-25 03:38 | 37.34463 | -138.62960 | 40297 ft | 477 kts | 237° |
| 2026-04-25 03:39 | 37.31149 | -138.68501 | 40296 ft | 477 kts | 237° |
| 2026-04-25 03:39 | 37.27145 | -138.75184 | 40294 ft | 478 kts | 237° |
| 2026-04-25 03:40 | 37.23144 | -138.81848 | 40293 ft | 478 kts | 237° |
| 2026-04-25 03:40 | 37.19131 | -138.88519 | 40298 ft | 479 kts | 237° |
| 2026-04-25 03:41 | 37.15110 | -138.95188 | 40299 ft | 479 kts | 237° |
| 2026-04-25 03:41 | 37.11090 | -139.01845 | 40295 ft | 479 kts | 237° |
| 2026-04-25 03:42 | 37.07068 | -139.08490 | 40298 ft | 479 kts | 237° |
| 2026-04-25 03:42 | 37.03032 | -139.15147 | 40300 ft | 480 kts | 237° |
| 2026-04-25 03:43 | 36.98986 | -139.21807 | 40305 ft | 481 kts | 237° |
| 2026-04-25 03:43 | 36.94955 | -139.28427 | 40302 ft | 481 kts | 237° |
| 2026-04-25 03:44 | 36.90900 | -139.35075 | 40304 ft | 481 kts | 237° |
| 2026-04-25 03:44 | 36.86838 | -139.41721 | 40301 ft | 481 kts | 237° |
| 2026-04-25 03:45 | 36.82778 | -139.48350 | 40304 ft | 481 kts | 237° |
| 2026-04-25 03:45 | 36.78703 | -139.54990 | 40305 ft | 481 kts | 237° |
| 2026-04-25 03:46 | 36.74632 | -139.61612 | 40301 ft | 480 kts | 237° |
| 2026-04-25 03:46 | 36.70563 | -139.68217 | 40305 ft | 480 kts | 237° |
| 2026-04-25 03:47 | 36.66497 | -139.74805 | 40305 ft | 479 kts | 237° |
| 2026-04-25 03:47 | 36.62431 | -139.81380 | 40308 ft | 479 kts | 237° |
| 2026-04-25 03:48 | 36.58361 | -139.87949 | 40308 ft | 479 kts | 237° |
| 2026-04-25 03:48 | 36.54288 | -139.94509 | 40307 ft | 479 kts | 237° |
| 2026-04-25 03:49 | 36.50212 | -140.01062 | 40310 ft | 479 kts | 237° |
| 2026-04-25 03:49 | 36.46130 | -140.07610 | 40308 ft | 479 kts | 237° |
| 2026-04-25 03:50 | 36.42052 | -140.14142 | 40308 ft | 478 kts | 237° |
| 2026-04-25 03:50 | 36.37962 | -140.20678 | 40308 ft | 478 kts | 237° |
| 2026-04-25 03:51 | 36.33880 | -140.27190 | 40307 ft | 479 kts | 237° |
| 2026-04-25 03:51 | 36.29790 | -140.33702 | 40307 ft | 478 kts | 237° |
| 2026-04-25 03:52 | 36.25701 | -140.40201 | 40307 ft | 478 kts | 237° |
| 2026-04-25 03:52 | 36.21607 | -140.46695 | 40313 ft | 478 kts | 238° |
| 2026-04-25 03:53 | 36.17508 | -140.53183 | 40312 ft | 478 kts | 238° |
| 2026-04-25 03:53 | 36.13435 | -140.59620 | 40316 ft | 478 kts | 238° |
| 2026-04-25 03:54 | 36.09331 | -140.66092 | 40311 ft | 478 kts | 238° |
| 2026-04-25 03:54 | 36.05217 | -140.72568 | 40314 ft | 478 kts | 238° |
| 2026-04-25 03:55 | 36.01106 | -140.79027 | 40309 ft | 478 kts | 238° |
| 2026-04-25 03:55 | 35.96992 | -140.85480 | 40310 ft | 478 kts | 238° |
| 2026-04-25 03:56 | 35.92867 | -140.91936 | 40311 ft | 478 kts | 238° |
| 2026-04-25 03:56 | 35.88748 | -140.98373 | 40310 ft | 478 kts | 238° |
| 2026-04-25 03:57 | 35.84621 | -141.04808 | 40309 ft | 478 kts | 238° |
| 2026-04-25 03:57 | 35.80491 | -141.11237 | 40308 ft | 478 kts | 238° |
| 2026-04-25 03:58 | 35.76389 | -141.17608 | 40308 ft | 478 kts | 238° |
| 2026-04-25 03:58 | 35.72235 | -141.24050 | 40312 ft | 477 kts | 238° |
| 2026-04-25 03:59 | 35.68136 | -141.30395 | 40314 ft | 477 kts | 238° |
| 2026-04-25 03:59 | 35.63976 | -141.36822 | 40318 ft | 477 kts | 238° |
| 2026-04-25 04:00 | 35.59847 | -141.43189 | 40315 ft | 476 kts | 238° |
| 2026-04-25 04:00 | 35.55754 | -141.49489 | 40308 ft | 474 kts | 239° |
| 2026-04-25 04:01 | 35.51636 | -141.55818 | 40311 ft | 474 kts | 239° |
| 2026-04-25 04:01 | 35.47517 | -141.62135 | 40311 ft | 473 kts | 239° |
| 2026-04-25 04:02 | 35.43377 | -141.68473 | 40308 ft | 473 kts | 239° |
| 2026-04-25 04:02 | 35.39259 | -141.74767 | 40325 ft | 473 kts | 239° |
| 2026-04-25 04:03 | 35.35165 | -141.81009 | 40322 ft | 473 kts | 239° |
| 2026-04-25 04:03 | 35.31047 | -141.87280 | 40312 ft | 472 kts | 239° |
| 2026-04-25 04:04 | 35.26926 | -141.93544 | 40309 ft | 472 kts | 239° |
| 2026-04-25 04:04 | 35.22798 | -141.99807 | 40314 ft | 473 kts | 239° |
| 2026-04-25 04:05 | 35.18652 | -142.06086 | 40311 ft | 474 kts | 239° |
| 2026-04-25 04:05 | 35.14502 | -142.12359 | 40314 ft | 474 kts | 239° |
| 2026-04-25 04:06 | 35.10355 | -142.18618 | 40312 ft | 475 kts | 238° |
| 2026-04-25 04:06 | 35.06191 | -142.24889 | 40308 ft | 476 kts | 238° |
| 2026-04-25 04:07 | 35.01987 | -142.31210 | 40309 ft | 476 kts | 238° |
| 2026-04-25 04:07 | 34.97808 | -142.37480 | 40310 ft | 476 kts | 238° |
| 2026-04-25 04:08 | 34.93621 | -142.43744 | 40311 ft | 477 kts | 238° |
| 2026-04-25 04:08 | 34.89426 | -142.50012 | 40311 ft | 478 kts | 238° |
| 2026-04-25 04:09 | 34.85219 | -142.56284 | 40309 ft | 477 kts | 238° |
| 2026-04-25 04:09 | 34.81023 | -142.62532 | 40310 ft | 477 kts | 238° |
| 2026-04-25 04:10 | 34.76818 | -142.68781 | 40309 ft | 477 kts | 238° |
| 2026-04-25 04:10 | 34.72613 | -142.75018 | 40306 ft | 477 kts | 238° |
| 2026-04-25 04:11 | 34.66285 | -142.84384 | 40307 ft | 478 kts | 238° |
| 2026-04-25 04:12 | 34.62061 | -142.90622 | 40311 ft | 478 kts | 238° |
| 2026-04-25 04:12 | 34.57830 | -142.96858 | 40305 ft | 478 kts | 237° |
| 2026-04-25 04:13 | 34.53596 | -143.03089 | 40304 ft | 479 kts | 237° |
| 2026-04-25 04:13 | 34.49361 | -143.09310 | 40305 ft | 478 kts | 237° |
| 2026-04-25 04:14 | 34.45127 | -143.15520 | 40306 ft | 478 kts | 237° |
| 2026-04-25 04:14 | 34.40880 | -143.21737 | 40309 ft | 479 kts | 237° |
| 2026-04-25 04:15 | 34.36626 | -143.27953 | 40303 ft | 479 kts | 237° |
| 2026-04-25 04:15 | 34.32363 | -143.34171 | 40312 ft | 479 kts | 237° |
| 2026-04-25 04:16 | 34.28132 | -143.40332 | 40304 ft | 479 kts | 237° |
| 2026-04-25 04:16 | 34.23874 | -143.46521 | 40304 ft | 478 kts | 237° |
| 2026-04-25 04:17 | 34.19613 | -143.52705 | 40299 ft | 479 kts | 237° |
| 2026-04-25 04:17 | 34.15346 | -143.58885 | 40301 ft | 479 kts | 237° |
| 2026-04-25 04:18 | 34.11072 | -143.65066 | 40301 ft | 480 kts | 237° |
| 2026-04-25 04:18 | 34.07479 | -143.70254 | 40303 ft | 480 kts | 237° |
| 2026-04-25 04:19 | 34.03195 | -143.76428 | 40300 ft | 479 kts | 237° |
| 2026-04-25 04:19 | 33.98950 | -143.82538 | 40302 ft | 479 kts | 237° |
| 2026-04-25 04:20 | 33.94662 | -143.88697 | 40296 ft | 479 kts | 237° |
| 2026-04-25 04:20 | 33.90382 | -143.94834 | 40301 ft | 479 kts | 237° |
| 2026-04-25 04:21 | 33.86090 | -144.00980 | 40301 ft | 480 kts | 237° |
| 2026-04-25 04:21 | 33.81796 | -144.07116 | 40293 ft | 480 kts | 237° |
| 2026-04-25 04:22 | 33.77493 | -144.13255 | 40297 ft | 481 kts | 236° |
| 2026-04-25 04:22 | 33.73178 | -144.19400 | 40294 ft | 481 kts | 236° |
| 2026-04-25 04:23 | 33.68858 | -144.25543 | 40290 ft | 482 kts | 236° |
| 2026-04-25 04:23 | 33.64528 | -144.31689 | 40290 ft | 482 kts | 236° |
| 2026-04-25 04:24 | 33.60187 | -144.37839 | 40298 ft | 482 kts | 236° |
| 2026-04-25 04:24 | 33.55850 | -144.43974 | 40287 ft | 483 kts | 236° |
| 2026-04-25 04:25 | 33.51504 | -144.50111 | 40300 ft | 483 kts | 236° |
| 2026-04-25 04:25 | 33.47627 | -144.55577 | 40298 ft | 483 kts | 236° |
| 2026-04-25 04:26 | 33.43268 | -144.61712 | 40290 ft | 484 kts | 236° |
| 2026-04-25 04:26 | 33.38906 | -144.67842 | 40290 ft | 483 kts | 236° |
| 2026-04-25 04:27 | 33.34535 | -144.73974 | 40289 ft | 484 kts | 236° |
| 2026-04-25 04:27 | 33.30167 | -144.80091 | 40289 ft | 483 kts | 235° |
| 2026-04-25 04:28 | 33.25802 | -144.86194 | 40289 ft | 483 kts | 235° |
| 2026-04-25 04:28 | 33.21433 | -144.92293 | 40290 ft | 483 kts | 235° |
| 2026-04-25 04:29 | 33.17153 | -144.98247 | 40288 ft | 467 kts | 236° |
| 2026-04-25 04:29 | 33.12903 | -145.04175 | 40284 ft | 469 kts | 236° |
| 2026-04-25 04:30 | 33.08672 | -145.10043 | 40283 ft | 470 kts | 236° |
| 2026-04-25 04:30 | 33.04416 | -145.15947 | 40284 ft | 469 kts | 236° |
| 2026-04-25 04:31 | 33.00155 | -145.21846 | 40285 ft | 470 kts | 236° |
| 2026-04-25 04:31 | 32.95862 | -145.27778 | 40283 ft | 469 kts | 235° |
| 2026-04-25 04:32 | 32.91613 | -145.33643 | 40286 ft | 468 kts | 235° |
| 2026-04-25 04:32 | 32.87356 | -145.39507 | 40283 ft | 468 kts | 235° |
| 2026-04-25 04:33 | 32.83124 | -145.45328 | 40282 ft | 468 kts | 235° |
| 2026-04-25 04:33 | 32.78862 | -145.51182 | 40284 ft | 468 kts | 235° |
| 2026-04-25 04:34 | 32.74597 | -145.57030 | 40280 ft | 468 kts | 235° |
| 2026-04-25 04:34 | 32.70333 | -145.62866 | 40276 ft | 468 kts | 235° |
| 2026-04-25 04:35 | 32.66070 | -145.68694 | 40282 ft | 467 kts | 235° |
| 2026-04-25 04:35 | 32.61805 | -145.74514 | 40282 ft | 467 kts | 235° |
| 2026-04-25 04:36 | 32.57536 | -145.80329 | 40293 ft | 467 kts | 235° |
| 2026-04-25 04:36 | 32.53268 | -145.86137 | 40284 ft | 468 kts | 234° |
| 2026-04-25 04:37 | 32.48985 | -145.91954 | 40276 ft | 468 kts | 234° |
| 2026-04-25 04:37 | 32.44700 | -145.97764 | 40280 ft | 468 kts | 234° |
| 2026-04-25 04:38 | 32.40412 | -146.03569 | 40281 ft | 469 kts | 234° |
| 2026-04-25 04:38 | 32.36117 | -146.09375 | 40275 ft | 469 kts | 234° |
| 2026-04-25 04:39 | 32.31820 | -146.15175 | 40279 ft | 469 kts | 234° |
| 2026-04-25 04:39 | 32.27522 | -146.20966 | 40277 ft | 468 kts | 234° |
| 2026-04-25 04:40 | 32.23255 | -146.26708 | 40281 ft | 468 kts | 234° |
| 2026-04-25 04:40 | 32.18956 | -146.32483 | 40283 ft | 468 kts | 234° |
| 2026-04-25 04:41 | 32.14655 | -146.38252 | 40279 ft | 468 kts | 234° |
| 2026-04-25 04:41 | 32.10350 | -146.44016 | 40276 ft | 467 kts | 234° |
| 2026-04-25 04:42 | 32.06051 | -146.49765 | 40274 ft | 467 kts | 234° |
| 2026-04-25 04:42 | 32.01776 | -146.55472 | 40273 ft | 467 kts | 234° |
| 2026-04-25 04:43 | 31.97474 | -146.61208 | 40280 ft | 467 kts | 234° |
| 2026-04-25 04:43 | 31.93175 | -146.66930 | 40277 ft | 466 kts | 234° |
| 2026-04-25 04:44 | 31.88872 | -146.72648 | 40267 ft | 466 kts | 234° |
| 2026-04-25 04:44 | 31.84575 | -146.78350 | 40274 ft | 466 kts | 234° |
| 2026-04-25 04:45 | 31.80272 | -146.84051 | 40276 ft | 466 kts | 234° |
| 2026-04-25 04:45 | 31.75967 | -146.89746 | 40272 ft | 466 kts | 234° |
| 2026-04-25 04:46 | 31.71660 | -146.95435 | 40281 ft | 466 kts | 234° |
| 2026-04-25 04:46 | 31.67353 | -147.01115 | 40272 ft | 465 kts | 234° |
| 2026-04-25 04:47 | 31.63043 | -147.06791 | 40270 ft | 466 kts | 233° |
| 2026-04-25 04:47 | 31.58723 | -147.12471 | 40272 ft | 466 kts | 233° |
| 2026-04-25 04:48 | 31.54435 | -147.18101 | 40269 ft | 466 kts | 233° |
| 2026-04-25 04:48 | 31.50115 | -147.23764 | 40270 ft | 466 kts | 233° |
| 2026-04-25 04:49 | 31.45800 | -147.29412 | 40267 ft | 465 kts | 233° |
| 2026-04-25 04:49 | 31.41490 | -147.35046 | 40269 ft | 464 kts | 233° |
| 2026-04-25 04:50 | 31.37174 | -147.40679 | 40263 ft | 465 kts | 233° |
| 2026-04-25 04:50 | 31.32851 | -147.46313 | 40266 ft | 466 kts | 233° |
| 2026-04-25 04:51 | 31.28519 | -147.51950 | 40268 ft | 466 kts | 233° |
| 2026-04-25 04:51 | 31.24180 | -147.57587 | 40269 ft | 466 kts | 233° |
| 2026-04-25 04:52 | 31.19843 | -147.63213 | 40262 ft | 466 kts | 233° |
| 2026-04-25 04:52 | 31.15532 | -147.68798 | 40262 ft | 465 kts | 233° |
| 2026-04-25 04:53 | 31.11195 | -147.74408 | 40263 ft | 466 kts | 233° |
| 2026-04-25 04:53 | 31.06857 | -147.80012 | 40265 ft | 466 kts | 233° |
| 2026-04-25 04:54 | 31.02514 | -147.85612 | 40264 ft | 465 kts | 233° |
| 2026-04-25 04:54 | 30.98171 | -147.91206 | 40262 ft | 465 kts | 233° |
| 2026-04-25 04:55 | 30.93825 | -147.96795 | 40259 ft | 465 kts | 233° |
| 2026-04-25 04:55 | 30.89478 | -148.02377 | 40265 ft | 465 kts | 233° |
| 2026-04-25 04:56 | 30.85129 | -148.07953 | 40262 ft | 465 kts | 233° |
| 2026-04-25 04:56 | 30.80778 | -148.13523 | 40257 ft | 465 kts | 233° |
| 2026-04-25 04:57 | 30.76423 | -148.19091 | 40256 ft | 466 kts | 233° |
| 2026-04-25 04:57 | 30.72063 | -148.24656 | 40262 ft | 465 kts | 233° |
| 2026-04-25 04:58 | 30.67700 | -148.30220 | 40258 ft | 466 kts | 233° |
| 2026-04-25 04:58 | 30.63331 | -148.35780 | 40254 ft | 466 kts | 233° |
| 2026-04-25 04:59 | 30.58986 | -148.41303 | 40255 ft | 466 kts | 233° |
| 2026-04-25 04:59 | 30.54609 | -148.46859 | 40258 ft | 466 kts | 233° |
| 2026-04-25 05:00 | 30.50234 | -148.52405 | 40256 ft | 466 kts | 232° |
| 2026-04-25 05:00 | 30.45858 | -148.57943 | 40256 ft | 466 kts | 232° |
| 2026-04-25 05:01 | 30.41477 | -148.63479 | 40256 ft | 466 kts | 232° |
| 2026-04-25 05:01 | 30.37092 | -148.69013 | 40255 ft | 466 kts | 232° |
| 2026-04-25 05:02 | 30.32707 | -148.74539 | 40254 ft | 466 kts | 232° |
| 2026-04-25 05:02 | 30.28347 | -148.80026 | 40253 ft | 466 kts | 232° |
| 2026-04-25 05:03 | 30.23955 | -148.85545 | 40256 ft | 466 kts | 232° |
| 2026-04-25 05:03 | 30.19568 | -148.91051 | 40258 ft | 466 kts | 232° |
| 2026-04-25 05:04 | 30.15165 | -148.96568 | 40254 ft | 466 kts | 232° |
| 2026-04-25 05:04 | 30.10765 | -149.02074 | 40253 ft | 466 kts | 232° |
| 2026-04-25 05:05 | 30.06365 | -149.07571 | 40247 ft | 466 kts | 232° |
| 2026-04-25 05:05 | 30.01956 | -149.13078 | 40245 ft | 467 kts | 232° |
| 2026-04-25 05:06 | 29.98299 | -149.17645 | 40245 ft | 466 kts | 232° |
| 2026-04-25 05:06 | 29.93890 | -149.23140 | 40241 ft | 467 kts | 232° |
| 2026-04-25 05:07 | 29.88751 | -149.29536 | 40255 ft | 468 kts | 232° |
| 2026-04-25 05:07 | 29.85040 | -149.34147 | 40249 ft | 468 kts | 232° |
| 2026-04-25 05:08 | 29.80592 | -149.39671 | 40242 ft | 475 kts | 233° |
| 2026-04-25 05:08 | 29.76077 | -149.45269 | 40247 ft | 485 kts | 232° |
| 2026-04-25 05:09 | 29.71443 | -149.51001 | 40258 ft | 491 kts | 232° |
| 2026-04-25 05:09 | 29.66780 | -149.56764 | 40260 ft | 493 kts | 232° |
| 2026-04-25 05:10 | 29.62120 | -149.62514 | 40260 ft | 491 kts | 232° |
| 2026-04-25 05:10 | 29.57456 | -149.68263 | 40252 ft | 491 kts | 232° |
| 2026-04-25 05:11 | 29.52793 | -149.73999 | 40250 ft | 491 kts | 232° |
| 2026-04-25 05:11 | 29.48128 | -149.79732 | 40246 ft | 491 kts | 232° |
| 2026-04-25 05:12 | 29.41132 | -149.88311 | 40238 ft | 490 kts | 232° |
| 2026-04-25 05:12 | 29.36502 | -149.93981 | 40245 ft | 490 kts | 232° |
| 2026-04-25 05:13 | 29.31841 | -149.99679 | 40240 ft | 489 kts | 232° |
| 2026-04-25 05:13 | 29.27179 | -150.05370 | 40233 ft | 489 kts | 232° |
| 2026-04-25 05:14 | 29.22524 | -150.11045 | 40237 ft | 489 kts | 232° |
| 2026-04-25 05:15 | 29.15547 | -150.19536 | 40234 ft | 488 kts | 232° |
| 2026-04-25 05:15 | 29.10891 | -150.25192 | 40234 ft | 488 kts | 232° |
| 2026-04-25 05:16 | 29.06236 | -150.30838 | 40230 ft | 487 kts | 232° |
| 2026-04-25 05:16 | 29.01582 | -150.36476 | 40227 ft | 488 kts | 232° |
| 2026-04-25 05:17 | 28.96958 | -150.42068 | 40222 ft | 487 kts | 232° |
| 2026-04-25 05:17 | 28.92309 | -150.47686 | 40223 ft | 487 kts | 231° |
| 2026-04-25 05:18 | 28.87654 | -150.53299 | 40225 ft | 486 kts | 231° |
| 2026-04-25 05:18 | 28.83006 | -150.58899 | 40222 ft | 486 kts | 231° |
| 2026-04-25 05:19 | 28.78357 | -150.64490 | 40220 ft | 485 kts | 231° |
| 2026-04-25 05:19 | 28.73714 | -150.70068 | 40223 ft | 485 kts | 231° |
| 2026-04-25 05:20 | 28.69066 | -150.75643 | 40217 ft | 484 kts | 231° |
| 2026-04-25 05:20 | 28.64426 | -150.81202 | 40215 ft | 484 kts | 231° |
| 2026-04-25 05:21 | 28.59787 | -150.86751 | 40216 ft | 483 kts | 231° |
| 2026-04-25 05:21 | 28.55187 | -150.92246 | 40217 ft | 482 kts | 231° |
| 2026-04-25 05:22 | 28.50560 | -150.97767 | 40228 ft | 482 kts | 231° |
| 2026-04-25 05:22 | 28.45925 | -151.03289 | 40220 ft | 482 kts | 231° |
| 2026-04-25 05:23 | 28.41300 | -151.08792 | 40216 ft | 481 kts | 231° |
| 2026-04-25 05:23 | 28.36676 | -151.14286 | 40216 ft | 481 kts | 231° |
| 2026-04-25 05:24 | 28.32057 | -151.19767 | 40212 ft | 480 kts | 231° |
| 2026-04-25 05:24 | 28.27464 | -151.25209 | 40211 ft | 480 kts | 231° |
| 2026-04-25 05:25 | 28.22848 | -151.30671 | 40211 ft | 479 kts | 231° |
| 2026-04-25 05:25 | 28.18230 | -151.36129 | 40206 ft | 479 kts | 231° |
| 2026-04-25 05:26 | 28.13614 | -151.41578 | 40205 ft | 478 kts | 231° |
| 2026-04-25 05:26 | 28.09008 | -151.47008 | 40203 ft | 478 kts | 230° |
| 2026-04-25 05:27 | 28.04405 | -151.52425 | 40208 ft | 477 kts | 230° |
| 2026-04-25 05:27 | 27.99802 | -151.57836 | 40203 ft | 477 kts | 230° |
| 2026-04-25 05:28 | 27.95200 | -151.63239 | 40206 ft | 476 kts | 230° |
| 2026-04-25 05:28 | 27.90602 | -151.68631 | 40197 ft | 476 kts | 230° |
| 2026-04-25 05:29 | 27.86004 | -151.74014 | 40201 ft | 476 kts | 230° |
| 2026-04-25 05:29 | 27.81464 | -151.79321 | 40198 ft | 464 kts | 229° |
| 2026-04-25 05:30 | 27.76981 | -151.84562 | 40196 ft | 466 kts | 229° |
| 2026-04-25 05:30 | 27.72493 | -151.89795 | 40195 ft | 467 kts | 229° |
| 2026-04-25 05:31 | 27.67972 | -151.95062 | 40194 ft | 467 kts | 229° |
| 2026-04-25 05:31 | 27.63448 | -152.00327 | 40196 ft | 467 kts | 229° |
| 2026-04-25 05:32 | 27.58924 | -152.05584 | 40194 ft | 468 kts | 229° |
| 2026-04-25 05:32 | 27.54389 | -152.10846 | 40193 ft | 468 kts | 229° |
| 2026-04-25 05:33 | 27.49851 | -152.16108 | 40189 ft | 468 kts | 229° |
| 2026-04-25 05:33 | 27.45307 | -152.21368 | 40189 ft | 469 kts | 229° |
| 2026-04-25 05:34 | 27.40785 | -152.26597 | 40186 ft | 469 kts | 229° |
| 2026-04-25 05:34 | 27.36234 | -152.31852 | 40189 ft | 469 kts | 229° |
| 2026-04-25 05:35 | 27.31681 | -152.37103 | 40187 ft | 469 kts | 229° |
| 2026-04-25 05:35 | 27.27124 | -152.42352 | 40183 ft | 469 kts | 229° |
| 2026-04-25 05:36 | 27.22560 | -152.47602 | 40181 ft | 469 kts | 229° |
| 2026-04-25 05:36 | 27.18027 | -152.52811 | 40181 ft | 469 kts | 229° |
| 2026-04-25 05:37 | 27.13464 | -152.58047 | 40182 ft | 469 kts | 229° |
| 2026-04-25 05:37 | 27.08900 | -152.63279 | 40178 ft | 469 kts | 229° |
| 2026-04-25 05:38 | 27.04333 | -152.68507 | 40176 ft | 468 kts | 229° |
| 2026-04-25 05:38 | 26.99771 | -152.73723 | 40180 ft | 469 kts | 229° |
| 2026-04-25 05:39 | 26.95198 | -152.78945 | 40182 ft | 469 kts | 229° |
| 2026-04-25 05:39 | 26.90625 | -152.84161 | 40177 ft | 469 kts | 228° |
| 2026-04-25 05:40 | 26.86049 | -152.89374 | 40175 ft | 469 kts | 228° |
| 2026-04-25 05:40 | 26.81502 | -152.94545 | 40174 ft | 469 kts | 228° |
| 2026-04-25 05:41 | 26.76923 | -152.99750 | 40167 ft | 469 kts | 228° |
| 2026-04-25 05:41 | 26.72339 | -153.04952 | 40171 ft | 470 kts | 228° |
| 2026-04-25 05:42 | 26.67749 | -153.10155 | 40173 ft | 470 kts | 228° |
| 2026-04-25 05:42 | 26.63148 | -153.15365 | 40170 ft | 470 kts | 228° |
| 2026-04-25 05:43 | 26.58552 | -153.20562 | 40172 ft | 470 kts | 228° |
| 2026-04-25 05:43 | 26.53950 | -153.25761 | 40167 ft | 471 kts | 228° |
| 2026-04-25 05:44 | 26.49342 | -153.30958 | 40178 ft | 471 kts | 228° |
| 2026-04-25 05:44 | 26.44730 | -153.36154 | 40178 ft | 471 kts | 228° |
| 2026-04-25 05:45 | 26.40141 | -153.41319 | 40173 ft | 471 kts | 228° |
| 2026-04-25 05:45 | 26.35523 | -153.46510 | 40171 ft | 471 kts | 228° |
| 2026-04-25 05:46 | 26.30902 | -153.51697 | 40173 ft | 471 kts | 228° |
| 2026-04-25 05:46 | 26.26274 | -153.56887 | 40170 ft | 471 kts | 228° |
| 2026-04-25 05:47 | 26.21643 | -153.62073 | 40161 ft | 472 kts | 228° |
| 2026-04-25 05:47 | 26.17014 | -153.67252 | 40159 ft | 472 kts | 228° |
| 2026-04-25 05:48 | 26.12379 | -153.72430 | 40162 ft | 471 kts | 228° |
| 2026-04-25 05:48 | 26.07753 | -153.77592 | 40160 ft | 470 kts | 228° |
| 2026-04-25 05:49 | 26.03133 | -153.82743 | 40159 ft | 471 kts | 228° |
| 2026-04-25 05:49 | 25.98506 | -153.87893 | 40157 ft | 471 kts | 228° |
| 2026-04-25 05:50 | 25.93905 | -153.93009 | 40159 ft | 471 kts | 228° |
| 2026-04-25 05:50 | 25.89270 | -153.98158 | 40160 ft | 471 kts | 228° |
| 2026-04-25 05:51 | 25.84628 | -154.03307 | 40156 ft | 471 kts | 228° |
| 2026-04-25 05:51 | 25.79991 | -154.08446 | 40159 ft | 471 kts | 227° |
| 2026-04-25 05:52 | 25.75350 | -154.13583 | 40161 ft | 471 kts | 227° |
| 2026-04-25 05:52 | 25.70705 | -154.18718 | 40159 ft | 471 kts | 227° |
| 2026-04-25 05:53 | 25.66057 | -154.23850 | 40158 ft | 472 kts | 227° |
| 2026-04-25 05:53 | 25.61436 | -154.28946 | 40157 ft | 472 kts | 227° |
| 2026-04-25 05:54 | 25.56780 | -154.34076 | 40156 ft | 472 kts | 227° |
| 2026-04-25 05:54 | 25.49795 | -154.41760 | 40155 ft | 472 kts | 227° |
| 2026-04-25 05:55 | 25.45141 | -154.46872 | 40157 ft | 471 kts | 227° |
| 2026-04-25 05:55 | 25.40480 | -154.51986 | 40152 ft | 471 kts | 227° |
| 2026-04-25 05:56 | 25.35826 | -154.57085 | 40152 ft | 471 kts | 227° |
| 2026-04-25 05:56 | 25.31957 | -154.61322 | 40150 ft | 471 kts | 227° |
| 2026-04-25 05:57 | 25.27295 | -154.66421 | 40152 ft | 471 kts | 227° |
| 2026-04-25 05:57 | 25.22635 | -154.71511 | 40147 ft | 471 kts | 227° |
| 2026-04-25 05:58 | 25.17971 | -154.76600 | 40150 ft | 471 kts | 227° |
| 2026-04-25 05:58 | 25.13311 | -154.81679 | 40146 ft | 471 kts | 227° |
| 2026-04-25 05:59 | 25.08675 | -154.86726 | 40149 ft | 471 kts | 227° |
| 2026-04-25 05:59 | 25.04011 | -154.91798 | 40152 ft | 471 kts | 227° |
| 2026-04-25 06:00 | 24.99346 | -154.96865 | 40149 ft | 471 kts | 227° |
| 2026-04-25 06:00 | 24.94684 | -155.01923 | 40147 ft | 470 kts | 227° |
| 2026-04-25 06:01 | 24.90018 | -155.06981 | 40146 ft | 471 kts | 227° |
| 2026-04-25 06:01 | 24.85344 | -155.12040 | 40150 ft | 471 kts | 227° |
| 2026-04-25 06:02 | 24.80673 | -155.17092 | 40151 ft | 472 kts | 227° |
| 2026-04-25 06:02 | 24.75980 | -155.22160 | 40150 ft | 472 kts | 227° |
| 2026-04-25 06:03 | 24.71474 | -155.27371 | 40190 ft | 466 kts | 237° |
| 2026-04-25 06:03 | 24.67766 | -155.33177 | 40160 ft | 467 kts | 238° |
| 2026-04-25 06:04 | 24.64053 | -155.39040 | 40160 ft | 467 kts | 237° |
| 2026-04-25 06:04 | 24.60325 | -155.44882 | 40160 ft | 467 kts | 237° |
| 2026-04-25 06:05 | 24.56598 | -155.50737 | 40160 ft | 467 kts | 237° |
| 2026-04-25 06:05 | 24.52869 | -155.56575 | 40158 ft | 466 kts | 237° |
| 2026-04-25 06:06 | 24.49145 | -155.62408 | 40159 ft | 466 kts | 237° |
| 2026-04-25 06:06 | 24.45414 | -155.68239 | 40157 ft | 467 kts | 237° |
| 2026-04-25 06:07 | 24.41675 | -155.74079 | 40160 ft | 468 kts | 237° |
| 2026-04-25 06:07 | 24.37951 | -155.79886 | 40158 ft | 467 kts | 237° |
| 2026-04-25 06:08 | 24.34215 | -155.85706 | 40158 ft | 466 kts | 237° |
| 2026-04-25 06:08 | 24.30478 | -155.91520 | 40157 ft | 466 kts | 237° |
| 2026-04-25 06:09 | 24.26740 | -155.97330 | 40152 ft | 466 kts | 237° |
| 2026-04-25 06:09 | 24.23017 | -156.03108 | 40147 ft | 466 kts | 237° |
| 2026-04-25 06:10 | 24.19253 | -156.08945 | 40146 ft | 466 kts | 237° |
| 2026-04-25 06:10 | 24.15541 | -156.14693 | 40142 ft | 466 kts | 237° |
| 2026-04-25 06:11 | 24.11793 | -156.20490 | 40142 ft | 467 kts | 237° |
| 2026-04-25 06:11 | 24.08032 | -156.26301 | 40143 ft | 468 kts | 237° |
| 2026-04-25 06:12 | 24.04267 | -156.32111 | 40139 ft | 467 kts | 237° |
| 2026-04-25 06:12 | 24.02190 | -156.34846 | 40185 ft | 470 kts | 225° |
| 2026-04-25 06:12 | 23.99598 | -156.37043 | 40181 ft | 475 kts | 212° |
| 2026-04-25 06:13 | 23.96599 | -156.38593 | 40180 ft | 480 kts | 200° |
| 2026-04-25 06:13 | 23.93332 | -156.39417 | 40185 ft | 485 kts | 189° |
| 2026-04-25 06:14 | 23.83261 | -156.40062 | 40155 ft | 484 kts | 188° |
| 2026-04-25 06:14 | 23.76674 | -156.41300 | 40160 ft | 478 kts | 201° |
| 2026-04-25 06:15 | 23.70448 | -156.43824 | 40146 ft | 476 kts | 204° |
| 2026-04-25 06:15 | 23.64136 | -156.46073 | 40148 ft | 478 kts | 199° |
| 2026-04-25 06:16 | 23.57790 | -156.48232 | 40149 ft | 477 kts | 202° |
| 2026-04-25 06:16 | 23.51483 | -156.50478 | 40150 ft | 478 kts | 200° |
| 2026-04-25 06:17 | 23.45133 | -156.52654 | 40153 ft | 476 kts | 201° |
| 2026-04-25 06:17 | 23.38871 | -156.54856 | 40141 ft | 477 kts | 200° |
| 2026-04-25 06:18 | 23.32540 | -156.57041 | 40140 ft | 477 kts | 201° |
| 2026-04-25 06:18 | 23.26217 | -156.59245 | 40140 ft | 477 kts | 201° |
| 2026-04-25 06:19 | 23.19882 | -156.61437 | 40140 ft | 477 kts | 201° |
| 2026-04-25 06:19 | 23.13567 | -156.63628 | 40134 ft | 476 kts | 201° |
| 2026-04-25 06:20 | 23.07250 | -156.65813 | 40134 ft | 477 kts | 201° |
| 2026-04-25 06:20 | 23.00932 | -156.67998 | 40131 ft | 476 kts | 201° |
| 2026-04-25 06:21 | 22.94615 | -156.70180 | 40128 ft | 476 kts | 201° |
| 2026-04-25 06:21 | 22.88289 | -156.72363 | 40130 ft | 477 kts | 201° |
| 2026-04-25 06:22 | 22.81951 | -156.74507 | 40124 ft | 479 kts | 195° |
| 2026-04-25 06:22 | 22.75387 | -156.75574 | 40129 ft | 481 kts | 191° |
| 2026-04-25 06:23 | 22.68748 | -156.76505 | 40127 ft | 480 kts | 191° |
| 2026-04-25 06:23 | 22.62140 | -156.77464 | 40125 ft | 478 kts | 191° |
| 2026-04-25 06:24 | 22.55542 | -156.78402 | 40118 ft | 478 kts | 191° |
| 2026-04-25 06:24 | 22.48937 | -156.79349 | 40115 ft | 479 kts | 191° |
| 2026-04-25 06:25 | 22.42327 | -156.80292 | 40114 ft | 479 kts | 191° |
| 2026-04-25 06:25 | 22.35695 | -156.81239 | 40114 ft | 480 kts | 191° |
| 2026-04-25 06:26 | 22.29134 | -156.82174 | 40109 ft | 478 kts | 192° |
| 2026-04-25 06:26 | 22.22814 | -156.84023 | 40139 ft | 467 kts | 210° |
| 2026-04-25 06:27 | 22.17399 | -156.87787 | 40118 ft | 463 kts | 219° |
| 2026-04-25 06:27 | 22.12190 | -156.91874 | 40122 ft | 462 kts | 220° |
| 2026-04-25 06:28 | 22.06989 | -156.95955 | 40124 ft | 461 kts | 219° |
| 2026-04-25 06:28 | 22.01799 | -157.00018 | 40119 ft | 461 kts | 219° |
| 2026-04-25 06:29 | 21.96606 | -157.04085 | 40120 ft | 462 kts | 219° |
| 2026-04-25 06:29 | 21.91434 | -157.08127 | 40115 ft | 462 kts | 219° |
| 2026-04-25 06:30 | 21.86236 | -157.12189 | 40106 ft | 461 kts | 219° |
| 2026-04-25 06:30 | 21.81045 | -157.16241 | 40104 ft | 460 kts | 219° |
| 2026-04-25 06:31 | 21.75854 | -157.20290 | 40098 ft | 461 kts | 220° |
| 2026-04-25 06:31 | 21.70815 | -157.24521 | 40099 ft | 458 kts | 224° |
| 2026-04-25 06:32 | 21.65929 | -157.28952 | 40102 ft | 460 kts | 224° |
| 2026-04-25 06:32 | 21.61052 | -157.33395 | 40100 ft | 459 kts | 224° |
| 2026-04-25 06:33 | 21.56175 | -157.37826 | 40095 ft | 459 kts | 224° |
| 2026-04-25 06:33 | 21.51298 | -157.42254 | 40087 ft | 458 kts | 224° |
| 2026-04-25 06:34 | 21.46457 | -157.46647 | 40083 ft | 458 kts | 224° |
| 2026-04-25 06:34 | 21.42066 | -157.51462 | 40098 ft | 444 kts | 238° |
| 2026-04-25 06:35 | 21.39289 | -157.57241 | 40097 ft | 433 kts | 250° |
| 2026-04-25 06:35 | 21.36989 | -157.63235 | 40093 ft | 435 kts | 250° |
| 2026-04-25 06:36 | 21.34701 | -157.69251 | 40090 ft | 435 kts | 250° |
| 2026-04-25 06:36 | 21.32402 | -157.75256 | 40089 ft | 435 kts | 250° |
| 2026-04-25 06:37 | 21.30132 | -157.81165 | 40092 ft | 416 kts | 250° |
| 2026-04-25 06:37 | 21.29048 | -157.83979 | 40087 ft | 402 kts | 250° |
| 2026-04-25 06:37 | 21.27956 | -157.86697 | 40090 ft | 392 kts | 246° |
| 2026-04-25 06:38 | 21.25594 | -157.91938 | 40097 ft | 397 kts | 247° |
| 2026-04-25 06:38 | 21.24527 | -157.94629 | 40105 ft | 385 kts | 255° |
| 2026-04-25 06:38 | 21.23944 | -157.97369 | 40102 ft | 371 kts | 264° |
| 2026-04-25 06:38 | 21.23813 | -158.00089 | 40102 ft | 360 kts | 271° |
| 2026-04-25 06:39 | 21.23812 | -158.02759 | 40099 ft | 355 kts | 270° |
| 2026-04-25 06:39 | 21.23807 | -158.08107 | 40110 ft | 363 kts | 270° |
| 2026-04-25 06:40 | 21.23810 | -158.13550 | 40107 ft | 367 kts | 270° |
| 2026-04-25 06:40 | 21.23989 | -158.18996 | 40121 ft | 364 kts | 285° |
| 2026-04-25 06:40 | 21.24948 | -158.21511 | 40142 ft | 369 kts | 302° |
| 2026-04-25 06:41 | 21.26636 | -158.23601 | 40152 ft | 378 kts | 319° |
| 2026-04-25 06:41 | 21.28885 | -158.25048 | 40156 ft | 388 kts | 335° |
| 2026-04-25 06:41 | 21.31539 | -158.25723 | 40156 ft | 400 kts | 352° |
| 2026-04-25 06:41 | 21.34366 | -158.25518 | 40169 ft | 416 kts | 9° |
| 2026-04-25 06:42 | 21.37124 | -158.24424 | 40184 ft | 432 kts | 26° |
| 2026-04-25 06:42 | 21.39599 | -158.22515 | 40206 ft | 447 kts | 41° |
| 2026-04-25 06:42 | 21.41605 | -158.19912 | 40224 ft | 457 kts | 57° |
| 2026-04-25 06:42 | 21.42973 | -158.16814 | 40269 ft | 463 kts | 72° |
| 2026-04-25 06:43 | 21.43609 | -158.13418 | 40281 ft | 466 kts | 88° |
| 2026-04-25 06:43 | 21.43465 | -158.09952 | 40291 ft | 466 kts | 103° |
| 2026-04-25 06:43 | 21.42570 | -158.06673 | 40290 ft | 462 kts | 117° |
| 2026-04-25 06:43 | 21.40998 | -158.03689 | 40279 ft | 458 kts | 128° |
| 2026-04-25 06:44 | 21.39150 | -158.00905 | 40202 ft | 459 kts | 128° |
| 2026-04-25 06:44 | 21.35673 | -157.95148 | 40115 ft | 458 kts | 120° |
| 2026-04-25 06:45 | 21.32812 | -157.89042 | 40116 ft | 458 kts | 119° |
| 2026-04-25 06:45 | 21.29484 | -157.83387 | 40111 ft | 453 kts | 137° |
| 2026-04-25 06:45 | 21.27196 | -157.81099 | 40112 ft | 448 kts | 149° |
| 2026-04-25 06:46 | 21.24580 | -157.79343 | 40114 ft | 441 kts | 161° |
| 2026-04-25 06:46 | 21.21745 | -157.78176 | 40127 ft | 433 kts | 172° |
| 2026-04-25 06:46 | 21.19133 | -157.77654 | 40124 ft | 426 kts | 182° |
| 2026-04-25 06:47 | 21.13910 | -157.78060 | 40123 ft | 413 kts | 201° |
| 2026-04-25 06:47 | 21.09593 | -157.80013 | 40104 ft | 401 kts | 219° |
| 2026-04-25 06:47 | 21.06955 | -157.82693 | 40132 ft | 388 kts | 240° |
| 2026-04-25 06:48 | 21.06072 | -157.84346 | 40136 ft | 385 kts | 251° |
| 2026-04-25 06:48 | 21.05354 | -157.87081 | 40137 ft | 381 kts | 266° |
| 2026-04-25 06:48 | 21.05420 | -157.89907 | 40140 ft | 381 kts | 282° |
| 2026-04-25 06:48 | 21.06262 | -157.92600 | 40139 ft | 385 kts | 297° |
| 2026-04-25 06:49 | 21.07817 | -157.94950 | 40144 ft | 391 kts | 312° |
| 2026-04-25 06:49 | 21.09972 | -157.96780 | 40145 ft | 400 kts | 327° |
| 2026-04-25 06:49 | 21.12569 | -157.97912 | 40149 ft | 410 kts | 343° |
| 2026-04-25 06:49 | 21.15433 | -157.98253 | 40150 ft | 421 kts | 358° |
| 2026-04-25 06:50 | 21.18355 | -157.97753 | 40154 ft | 432 kts | 14° |
| 2026-04-25 06:50 | 21.21128 | -157.96426 | 40152 ft | 443 kts | 29° |
| 2026-04-25 06:50 | 21.23547 | -157.94345 | 40158 ft | 452 kts | 44° |
| 2026-04-25 06:50 | 21.25444 | -157.91634 | 40158 ft | 459 kts | 60° |
| 2026-04-25 06:51 | 21.26682 | -157.88456 | 40162 ft | 464 kts | 75° |
| 2026-04-25 06:51 | 21.27165 | -157.85031 | 40165 ft | 467 kts | 91° |
| 2026-04-25 06:51 | 21.26860 | -157.81578 | 40163 ft | 466 kts | 106° |
| 2026-04-25 06:52 | 21.24586 | -157.75154 | 40112 ft | 463 kts | 116° |
| 2026-04-25 06:52 | 21.21494 | -157.69169 | 40106 ft | 457 kts | 131° |
| 2026-04-25 06:53 | 21.17035 | -157.64451 | 40100 ft | 445 kts | 152° |
| 2026-04-25 06:53 | 21.11518 | -157.61755 | 40120 ft | 431 kts | 173° |
| 2026-04-25 06:53 | 21.08588 | -157.61279 | 40122 ft | 423 kts | 184° |
| 2026-04-25 06:54 | 21.05699 | -157.61306 | 40099 ft | 420 kts | 188° |
| 2026-04-25 06:54 | 20.99828 | -157.61436 | 40085 ft | 423 kts | 185° |
| 2026-04-25 06:55 | 20.93951 | -157.61420 | 40084 ft | 420 kts | 189° |
| 2026-04-25 06:55 | 20.91097 | -157.61844 | 40099 ft | 411 kts | 200° |
| 2026-04-25 06:55 | 20.88410 | -157.62814 | 40092 ft | 404 kts | 211° |
| 2026-04-25 06:56 | 20.83863 | -157.66146 | 40099 ft | 393 kts | 230° |
| 2026-04-25 06:56 | 20.80773 | -157.70866 | 40100 ft | 386 kts | 249° |
| 2026-04-25 06:57 | 20.79423 | -157.76327 | 40095 ft | 383 kts | 267° |
| 2026-04-25 06:57 | 20.79904 | -157.81969 | 40101 ft | 384 kts | 285° |
| 2026-04-25 06:58 | 20.82193 | -157.87134 | 40102 ft | 389 kts | 304° |
| 2026-04-25 06:58 | 20.86094 | -157.91191 | 40109 ft | 398 kts | 323° |
| 2026-04-25 06:59 | 20.91244 | -157.93560 | 40107 ft | 412 kts | 343° |
| 2026-04-25 06:59 | 20.94115 | -157.93946 | 40115 ft | 420 kts | 354° |
| 2026-04-25 06:59 | 20.97046 | -157.93948 | 40090 ft | 422 kts | 354° |
| 2026-04-25 07:00 | 21.02924 | -157.93928 | 40101 ft | 422 kts | 354° |
| 2026-04-25 07:00 | 21.08790 | -157.93854 | 40117 ft | 424 kts | 1° |
| 2026-04-25 07:00 | 21.11714 | -157.93255 | 40116 ft | 433 kts | 13° |
| 2026-04-25 07:01 | 21.14522 | -157.92033 | 40120 ft | 440 kts | 25° |
| 2026-04-25 07:01 | 21.17056 | -157.90230 | 40145 ft | 447 kts | 37° |
| 2026-04-25 07:01 | 21.19261 | -157.87845 | 40149 ft | 454 kts | 50° |
| 2026-04-25 07:01 | 21.20980 | -157.84988 | 40160 ft | 459 kts | 62° |
| 2026-04-25 07:02 | 21.22116 | -157.81782 | 40159 ft | 462 kts | 75° |
| 2026-04-25 07:02 | 21.22602 | -157.78373 | 40156 ft | 464 kts | 89° |
| 2026-04-25 07:02 | 21.22407 | -157.74927 | 40140 ft | 464 kts | 102° |
| 2026-04-25 07:02 | 21.21557 | -157.71650 | 40137 ft | 462 kts | 115° |
| 2026-04-25 07:03 | 21.20080 | -157.68621 | 40131 ft | 458 kts | 129° |
| 2026-04-25 07:03 | 21.18065 | -157.66010 | 40124 ft | 452 kts | 142° |
| 2026-04-25 07:03 | 21.15626 | -157.63930 | 40133 ft | 445 kts | 154° |
| 2026-04-25 07:03 | 21.12889 | -157.62447 | 40123 ft | 437 kts | 166° |
| 2026-04-25 07:04 | 21.09988 | -157.61595 | 40125 ft | 429 kts | 178° |
| 2026-04-25 07:04 | 21.04115 | -157.61375 | 40111 ft | 421 kts | 186° |
| 2026-04-25 07:05 | 20.98256 | -157.61406 | 40101 ft | 421 kts | 186° |
| 2026-04-25 07:05 | 20.92419 | -157.61593 | 40113 ft | 413 kts | 196° |
| 2026-04-25 07:06 | 20.87130 | -157.63516 | 40110 ft | 401 kts | 216° |
| 2026-04-25 07:06 | 20.82918 | -157.67253 | 40102 ft | 391 kts | 235° |
| 2026-04-25 07:07 | 20.80256 | -157.72223 | 40101 ft | 384 kts | 253° |
| 2026-04-25 07:07 | 20.79370 | -157.77786 | 40104 ft | 381 kts | 272° |
| 2026-04-25 07:08 | 20.80315 | -157.83341 | 40104 ft | 383 kts | 290° |
| 2026-04-25 07:08 | 20.83023 | -157.88268 | 40108 ft | 390 kts | 308° |
| 2026-04-25 07:09 | 20.87268 | -157.91956 | 40110 ft | 402 kts | 328° |
| 2026-04-25 07:09 | 20.92649 | -157.93823 | 40112 ft | 417 kts | 349° |
| 2026-04-25 07:10 | 20.97691 | -157.93949 | 40107 ft | 422 kts | 354° |
| 2026-04-25 07:10 | 21.03574 | -157.93923 | 40106 ft | 422 kts | 354° |
| 2026-04-25 07:11 | 21.09447 | -157.93772 | 40132 ft | 426 kts | 4° |
| 2026-04-25 07:11 | 21.12317 | -157.93048 | 40139 ft | 434 kts | 15° |
| 2026-04-25 07:11 | 21.15086 | -157.91694 | 40146 ft | 442 kts | 27° |
| 2026-04-25 07:11 | 21.17585 | -157.89740 | 40151 ft | 449 kts | 39° |
| 2026-04-25 07:12 | 21.19693 | -157.87241 | 40156 ft | 454 kts | 52° |
| 2026-04-25 07:12 | 21.22288 | -157.81024 | 40147 ft | 463 kts | 78° |
| 2026-04-25 07:12 | 21.22622 | -157.77592 | 40134 ft | 465 kts | 92° |
| 2026-04-25 07:13 | 21.22271 | -157.74158 | 40127 ft | 464 kts | 106° |
| 2026-04-25 07:13 | 21.21254 | -157.70886 | 40122 ft | 461 kts | 119° |
| 2026-04-25 07:13 | 21.19655 | -157.67973 | 40134 ft | 457 kts | 132° |
| 2026-04-25 07:13 | 21.17530 | -157.65480 | 40134 ft | 451 kts | 144° |
| 2026-04-25 07:14 | 21.15003 | -157.63530 | 40138 ft | 443 kts | 156° |
| 2026-04-25 07:14 | 21.12207 | -157.62190 | 40137 ft | 435 kts | 168° |
| 2026-04-25 07:14 | 21.09289 | -157.61487 | 40129 ft | 427 kts | 180° |
| 2026-04-25 07:14 | 21.06341 | -157.61376 | 40115 ft | 421 kts | 186° |
| 2026-04-25 07:15 | 21.00498 | -157.61387 | 40099 ft | 421 kts | 186° |
| 2026-04-25 07:15 | 20.94632 | -157.61434 | 40094 ft | 421 kts | 186° |
| 2026-04-25 07:16 | 20.91746 | -157.61716 | 40112 ft | 412 kts | 198° |
| 2026-04-25 07:16 | 20.89012 | -157.62559 | 40112 ft | 405 kts | 208° |
| 2026-04-25 07:16 | 20.84337 | -157.65670 | 40104 ft | 394 kts | 228° |
| 2026-04-25 07:17 | 20.81058 | -157.70247 | 40105 ft | 386 kts | 247° |
| 2026-04-25 07:17 | 20.79488 | -157.75672 | 40100 ft | 382 kts | 265° |
| 2026-04-25 07:18 | 20.79744 | -157.81283 | 40104 ft | 382 kts | 283° |
| 2026-04-25 07:18 | 20.81810 | -157.86530 | 40101 ft | 387 kts | 301° |
| 2026-04-25 07:19 | 20.85497 | -157.90740 | 40112 ft | 396 kts | 320° |
| 2026-04-25 07:19 | 20.90497 | -157.93359 | 40109 ft | 409 kts | 341° |
| 2026-04-25 07:20 | 20.96232 | -157.93947 | 40092 ft | 420 kts | 354° |
| 2026-04-25 07:20 | 21.02096 | -157.93933 | 40103 ft | 422 kts | 354° |
| 2026-04-25 07:21 | 21.07971 | -157.93899 | 40113 ft | 422 kts | 356° |
| 2026-04-25 07:21 | 21.10901 | -157.93482 | 40121 ft | 430 kts | 9° |
| 2026-04-25 07:21 | 21.13757 | -157.92437 | 40122 ft | 438 kts | 21° |
| 2026-04-25 07:22 | 21.16377 | -157.90795 | 40127 ft | 446 kts | 34° |
| 2026-04-25 07:22 | 21.18721 | -157.88530 | 40127 ft | 452 kts | 47° |
| 2026-04-25 07:22 | 21.20555 | -157.85834 | 40134 ft | 458 kts | 59° |
| 2026-04-25 07:22 | 21.21863 | -157.82706 | 40151 ft | 462 kts | 72° |
| 2026-04-25 07:23 | 21.22533 | -157.79337 | 40153 ft | 464 kts | 85° |
| 2026-04-25 07:23 | 21.22527 | -157.75882 | 40157 ft | 464 kts | 98° |
| 2026-04-25 07:23 | 21.21843 | -157.72510 | 40154 ft | 463 kts | 111° |
| 2026-04-25 07:23 | 21.20518 | -157.69378 | 40147 ft | 459 kts | 125° |
| 2026-04-25 07:24 | 21.18635 | -157.66645 | 40136 ft | 454 kts | 138° |
| 2026-04-25 07:24 | 21.16291 | -157.64412 | 40114 ft | 447 kts | 151° |
| 2026-04-25 07:24 | 21.13621 | -157.62771 | 40113 ft | 439 kts | 163° |
| 2026-04-25 07:24 | 21.10753 | -157.61755 | 40109 ft | 430 kts | 175° |
| 2026-04-25 07:25 | 21.07814 | -157.61370 | 40123 ft | 422 kts | 186° |
| 2026-04-25 07:25 | 21.04927 | -157.61377 | 40098 ft | 421 kts | 185° |
| 2026-04-25 07:25 | 20.99069 | -157.61399 | 40095 ft | 420 kts | 186° |
| 2026-04-25 07:26 | 20.93233 | -157.61487 | 40093 ft | 416 kts | 193° |
| 2026-04-25 07:26 | 20.87789 | -157.63140 | 40105 ft | 403 kts | 213° |
| 2026-04-25 07:27 | 20.83395 | -157.66672 | 40104 ft | 392 kts | 232° |
| 2026-04-25 07:27 | 20.80520 | -157.71490 | 40103 ft | 385 kts | 251° |
| 2026-04-25 07:28 | 20.79383 | -157.77021 | 40103 ft | 381 kts | 269° |
| 2026-04-25 07:28 | 20.80083 | -157.82616 | 40104 ft | 383 kts | 287° |
| 2026-04-25 07:29 | 20.82548 | -157.87644 | 40105 ft | 389 kts | 306° |
| 2026-04-25 07:29 | 20.86596 | -157.91537 | 40115 ft | 399 kts | 325° |
| 2026-04-25 07:30 | 20.91847 | -157.93691 | 40116 ft | 413 kts | 346° |
| 2026-04-25 07:30 | 20.97669 | -157.93947 | 40112 ft | 420 kts | 354° |
| 2026-04-25 07:31 | 21.03487 | -157.93924 | 40108 ft | 420 kts | 354° |
| 2026-04-25 07:31 | 21.09346 | -157.93788 | 40129 ft | 424 kts | 4° |
| 2026-04-25 07:32 | 21.12248 | -157.93074 | 40140 ft | 433 kts | 15° |
| 2026-04-25 07:32 | 21.15027 | -157.91732 | 40150 ft | 442 kts | 27° |
| 2026-04-25 07:32 | 21.17538 | -157.89785 | 40155 ft | 450 kts | 39° |
| 2026-04-25 07:32 | 21.19640 | -157.87318 | 40159 ft | 456 kts | 52° |
| 2026-04-25 07:33 | 21.21259 | -157.84368 | 40154 ft | 461 kts | 65° |
| 2026-04-25 07:33 | 21.22272 | -157.81101 | 40149 ft | 464 kts | 78° |
| 2026-04-25 07:33 | 21.22621 | -157.77662 | 40133 ft | 466 kts | 92° |
| 2026-04-25 07:33 | 21.22282 | -157.74212 | 40123 ft | 465 kts | 106° |
| 2026-04-25 07:34 | 21.21276 | -157.70939 | 40121 ft | 462 kts | 119° |
| 2026-04-25 07:34 | 21.19665 | -157.67989 | 40131 ft | 457 kts | 132° |
| 2026-04-25 07:34 | 21.17573 | -157.65522 | 40136 ft | 451 kts | 144° |
| 2026-04-25 07:34 | 21.15054 | -157.63562 | 40144 ft | 443 kts | 156° |
| 2026-04-25 07:35 | 21.12274 | -157.62214 | 40141 ft | 436 kts | 168° |
| 2026-04-25 07:35 | 21.09343 | -157.61495 | 40129 ft | 428 kts | 180° |
| 2026-04-25 07:35 | 21.03452 | -157.61377 | 40107 ft | 422 kts | 186° |
| 2026-04-25 07:36 | 20.97587 | -157.61411 | 40102 ft | 420 kts | 186° |
| 2026-04-25 07:36 | 20.91815 | -157.61702 | 40116 ft | 411 kts | 197° |
| 2026-04-25 07:37 | 20.89085 | -157.62529 | 40121 ft | 405 kts | 208° |
| 2026-04-25 07:37 | 20.86582 | -157.63859 | 40108 ft | 399 kts | 218° |
| 2026-04-25 07:37 | 20.82535 | -157.67761 | 40105 ft | 389 kts | 237° |
| 2026-04-25 07:38 | 20.80069 | -157.72821 | 40109 ft | 383 kts | 256° |
| 2026-04-25 07:38 | 20.79371 | -157.77461 | 40107 ft | 381 kts | 270° |
| 2026-04-25 07:39 | 20.80213 | -157.83036 | 40108 ft | 384 kts | 289° |
| 2026-04-25 07:39 | 20.82834 | -157.88028 | 40108 ft | 390 kts | 307° |
| 2026-04-25 07:40 | 20.87016 | -157.91805 | 40115 ft | 401 kts | 327° |
| 2026-04-25 07:40 | 20.92337 | -157.93777 | 40118 ft | 414 kts | 348° |
| 2026-04-25 07:41 | 20.98163 | -157.93948 | 40116 ft | 421 kts | 354° |
| 2026-04-25 07:41 | 21.04032 | -157.93921 | 40111 ft | 421 kts | 354° |
| 2026-04-25 07:42 | 21.09860 | -157.93703 | 40144 ft | 426 kts | 5° |
| 2026-04-25 07:42 | 21.12784 | -157.92868 | 40148 ft | 435 kts | 17° |
| 2026-04-25 07:42 | 21.15494 | -157.91430 | 40151 ft | 443 kts | 29° |
| 2026-04-25 07:43 | 21.17945 | -157.89385 | 40148 ft | 451 kts | 41° |
| 2026-04-25 07:43 | 21.19983 | -157.86806 | 40146 ft | 457 kts | 54° |
| 2026-04-25 07:43 | 21.21497 | -157.83787 | 40133 ft | 462 kts | 68° |
| 2026-04-25 07:43 | 21.22389 | -157.80474 | 40128 ft | 465 kts | 82° |
| 2026-04-25 07:44 | 21.22610 | -157.77020 | 40128 ft | 466 kts | 95° |
| 2026-04-25 07:44 | 21.22143 | -157.73596 | 40140 ft | 464 kts | 108° |
| 2026-04-25 07:44 | 21.21020 | -157.70372 | 40149 ft | 460 kts | 121° |
| 2026-04-25 07:44 | 21.19309 | -157.67498 | 40151 ft | 455 kts | 134° |
| 2026-04-25 07:45 | 21.17108 | -157.65095 | 40145 ft | 449 kts | 146° |
| 2026-04-25 07:45 | 21.14566 | -157.63271 | 40142 ft | 442 kts | 158° |
| 2026-04-25 07:45 | 21.11754 | -157.62035 | 40128 ft | 434 kts | 170° |
| 2026-04-25 07:45 | 21.08826 | -157.61432 | 40120 ft | 425 kts | 182° |
| 2026-04-25 07:46 | 21.02969 | -157.61376 | 40104 ft | 420 kts | 186° |
| 2026-04-25 07:46 | 20.97240 | -157.61415 | 40102 ft | 419 kts | 186° |
| 2026-04-25 07:47 | 20.91461 | -157.61777 | 40121 ft | 410 kts | 199° |
| 2026-04-25 07:47 | 20.86283 | -157.64062 | 40103 ft | 400 kts | 219° |
| 2026-04-25 07:48 | 20.82319 | -157.68070 | 40107 ft | 390 kts | 238° |
| 2026-04-25 07:48 | 20.79963 | -157.73198 | 40109 ft | 384 kts | 257° |
| 2026-04-25 07:49 | 20.79407 | -157.78828 | 40110 ft | 383 kts | 275° |
| 2026-04-25 07:49 | 20.80696 | -157.84337 | 40112 ft | 386 kts | 293° |
| 2026-04-25 07:50 | 20.83207 | -157.88494 | 40115 ft | 393 kts | 309° |
| 2026-04-25 07:50 | 20.87554 | -157.92118 | 40114 ft | 404 kts | 329° |
| 2026-04-25 07:51 | 20.92955 | -157.93861 | 40126 ft | 417 kts | 350° |
| 2026-04-25 07:51 | 20.98809 | -157.93946 | 40112 ft | 421 kts | 354° |
| 2026-04-25 07:52 | 21.04670 | -157.93918 | 40111 ft | 420 kts | 354° |
| 2026-04-25 07:52 | 21.10525 | -157.93569 | 40138 ft | 427 kts | 7° |
| 2026-04-25 07:53 | 21.13352 | -157.92626 | 40148 ft | 436 kts | 19° |
| 2026-04-25 07:53 | 21.16044 | -157.91046 | 40134 ft | 445 kts | 32° |
| 2026-04-25 07:53 | 21.18416 | -157.88884 | 40129 ft | 452 kts | 44° |
| 2026-04-25 07:53 | 21.20347 | -157.86209 | 40130 ft | 458 kts | 58° |
| 2026-04-25 07:54 | 21.21731 | -157.83128 | 40129 ft | 462 kts | 71° |
| 2026-04-25 07:54 | 21.22486 | -157.79782 | 40148 ft | 464 kts | 84° |
| 2026-04-25 07:54 | 21.22568 | -157.76331 | 40150 ft | 464 kts | 97° |
| 2026-04-25 07:54 | 21.21971 | -157.72945 | 40155 ft | 462 kts | 110° |
| 2026-04-25 07:55 | 21.20731 | -157.69785 | 40156 ft | 459 kts | 123° |
| 2026-04-25 07:55 | 21.18922 | -157.66996 | 40150 ft | 454 kts | 136° |
| 2026-04-25 07:55 | 21.16640 | -157.64693 | 40135 ft | 447 kts | 149° |
| 2026-04-25 07:55 | 21.14016 | -157.62968 | 40116 ft | 440 kts | 161° |
| 2026-04-25 07:56 | 21.11168 | -157.61860 | 40114 ft | 431 kts | 173° |
| 2026-04-25 07:56 | 21.08267 | -157.61388 | 40115 ft | 423 kts | 185° |
| 2026-04-25 07:56 | 21.02411 | -157.61376 | 40106 ft | 421 kts | 186° |
| 2026-04-25 07:57 | 20.96540 | -157.61422 | 40106 ft | 420 kts | 186° |
| 2026-04-25 07:57 | 20.90820 | -157.61933 | 40096 ft | 410 kts | 201° |
| 2026-04-25 07:58 | 20.88155 | -157.62950 | 40112 ft | 403 kts | 212° |
| 2026-04-25 07:58 | 20.85753 | -157.64448 | 40111 ft | 397 kts | 221° |
| 2026-04-25 07:58 | 20.81964 | -157.68610 | 40110 ft | 388 kts | 240° |
| 2026-04-25 07:59 | 20.79816 | -157.73781 | 40105 ft | 382 kts | 259° |
| 2026-04-25 07:59 | 20.79454 | -157.79397 | 40112 ft | 381 kts | 277° |
| 2026-04-25 08:00 | 20.80917 | -157.84842 | 40114 ft | 385 kts | 295° |
| 2026-04-25 08:00 | 20.84101 | -157.89482 | 40114 ft | 393 kts | 314° |
| 2026-04-25 08:01 | 20.88725 | -157.92704 | 40119 ft | 405 kts | 334° |
| 2026-04-25 08:01 | 20.94266 | -157.93949 | 40124 ft | 419 kts | 355° |
| 2026-04-25 08:02 | 21.00112 | -157.93943 | 40113 ft | 421 kts | 354° |
| 2026-04-25 08:02 | 21.05993 | -157.93912 | 40122 ft | 422 kts | 354° |
| 2026-04-25 08:03 | 21.11864 | -157.93206 | 40145 ft | 434 kts | 14° |
| 2026-04-25 08:03 | 21.14638 | -157.91966 | 40148 ft | 442 kts | 25° |
| 2026-04-25 08:03 | 21.17204 | -157.90096 | 40160 ft | 449 kts | 38° |
| 2026-04-25 08:04 | 21.19383 | -157.87677 | 40166 ft | 455 kts | 50° |
| 2026-04-25 08:04 | 21.21071 | -157.84791 | 40164 ft | 460 kts | 63° |
| 2026-04-25 08:04 | 21.22169 | -157.81564 | 40165 ft | 463 kts | 76° |
| 2026-04-25 08:04 | 21.22612 | -157.78133 | 40154 ft | 465 kts | 90° |
| 2026-04-25 08:05 | 21.22369 | -157.74684 | 40131 ft | 465 kts | 103° |
| 2026-04-25 08:05 | 21.21452 | -157.71373 | 40128 ft | 462 kts | 117° |
| 2026-04-25 08:05 | 21.19942 | -157.68403 | 40123 ft | 457 kts | 130° |
| 2026-04-25 08:05 | 21.17897 | -157.65841 | 40138 ft | 451 kts | 143° |
| 2026-04-25 08:06 | 21.15431 | -157.63804 | 40140 ft | 443 kts | 155° |
| 2026-04-25 08:06 | 21.12688 | -157.62371 | 40144 ft | 435 kts | 166° |
| 2026-04-25 08:06 | 21.09790 | -157.61563 | 40137 ft | 427 kts | 178° |
| 2026-04-25 08:06 | 21.06853 | -157.61370 | 40128 ft | 419 kts | 186° |
| 2026-04-25 08:07 | 21.01007 | -157.61384 | 40108 ft | 420 kts | 186° |
| 2026-04-25 08:07 | 20.95158 | -157.61432 | 40102 ft | 421 kts | 186° |
| 2026-04-25 08:08 | 20.89500 | -157.62365 | 40126 ft | 406 kts | 206° |
| 2026-04-25 08:08 | 20.84724 | -157.65306 | 40114 ft | 394 kts | 226° |
| 2026-04-25 08:09 | 20.81303 | -157.69759 | 40105 ft | 385 kts | 245° |
| 2026-04-25 08:09 | 20.79565 | -157.75097 | 40108 ft | 381 kts | 263° |
| 2026-04-25 08:10 | 20.79641 | -157.80755 | 40110 ft | 383 kts | 281° |
| 2026-04-25 08:10 | 20.81546 | -157.86078 | 40114 ft | 388 kts | 300° |
| 2026-04-25 08:11 | 20.85142 | -157.90448 | 40116 ft | 398 kts | 319° |
| 2026-04-25 08:11 | 20.90052 | -157.93219 | 40121 ft | 409 kts | 339° |
| 2026-04-25 08:12 | 20.95771 | -157.93948 | 40112 ft | 420 kts | 354° |
| 2026-04-25 08:12 | 21.01625 | -157.93935 | 40111 ft | 421 kts | 354° |
| 2026-04-25 08:13 | 21.07487 | -157.93906 | 40120 ft | 421 kts | 355° |
| 2026-04-25 08:13 | 21.10431 | -157.93590 | 40147 ft | 429 kts | 7° |
| 2026-04-25 08:14 | 21.15999 | -157.91079 | 40141 ft | 445 kts | 31° |
| 2026-04-25 08:14 | 21.18352 | -157.88953 | 40139 ft | 451 kts | 44° |
| 2026-04-25 08:14 | 21.20298 | -157.86292 | 40139 ft | 457 kts | 57° |
| 2026-04-25 08:14 | 21.21700 | -157.83220 | 40142 ft | 461 kts | 71° |
| 2026-04-25 08:15 | 21.22474 | -157.79885 | 40145 ft | 463 kts | 84° |
| 2026-04-25 08:15 | 21.22576 | -157.76438 | 40156 ft | 463 kts | 97° |
| 2026-04-25 08:15 | 21.22001 | -157.73053 | 40161 ft | 461 kts | 109° |
| 2026-04-25 08:15 | 21.20781 | -157.69883 | 40162 ft | 458 kts | 122° |
| 2026-04-25 08:16 | 21.18993 | -157.67086 | 40154 ft | 453 kts | 135° |
| 2026-04-25 08:16 | 21.16764 | -157.64796 | 40141 ft | 447 kts | 148° |
| 2026-04-25 08:16 | 21.14160 | -157.63043 | 40121 ft | 440 kts | 160° |
| 2026-04-25 08:16 | 21.11321 | -157.61903 | 40116 ft | 432 kts | 173° |
| 2026-04-25 08:17 | 21.08396 | -157.61396 | 40116 ft | 423 kts | 184° |
| 2026-04-25 08:17 | 21.02529 | -157.61375 | 40109 ft | 421 kts | 186° |
| 2026-04-25 08:18 | 20.96669 | -157.61422 | 40111 ft | 420 kts | 186° |
| 2026-04-25 08:18 | 20.90935 | -157.61903 | 40102 ft | 410 kts | 201° |
| 2026-04-25 08:19 | 20.85847 | -157.64376 | 40099 ft | 397 kts | 221° |
| 2026-04-25 08:19 | 20.82033 | -157.68504 | 40116 ft | 387 kts | 240° |
| 2026-04-25 08:20 | 20.79849 | -157.73649 | 40115 ft | 382 kts | 258° |
| 2026-04-25 08:20 | 20.79441 | -157.79266 | 40107 ft | 381 kts | 276° |
| 2026-04-25 08:21 | 20.80860 | -157.84715 | 40116 ft | 385 kts | 294° |
| 2026-04-25 08:21 | 20.84003 | -157.89382 | 40116 ft | 393 kts | 313° |
| 2026-04-25 08:22 | 20.88609 | -157.92652 | 40122 ft | 405 kts | 333° |
| 2026-04-25 08:22 | 20.91315 | -157.93576 | 40122 ft | 412 kts | 344° |
| 2026-04-25 08:22 | 20.94190 | -157.93947 | 40126 ft | 420 kts | 354° |
| 2026-04-25 08:23 | 21.00041 | -157.93944 | 40119 ft | 420 kts | 354° |
| 2026-04-25 08:23 | 21.05860 | -157.93912 | 40121 ft | 420 kts | 354° |
| 2026-04-25 08:24 | 21.11702 | -157.93259 | 40124 ft | 432 kts | 13° |
| 2026-04-25 08:24 | 21.14516 | -157.92037 | 40136 ft | 441 kts | 25° |
| 2026-04-25 08:24 | 21.17086 | -157.90202 | 40146 ft | 448 kts | 37° |
| 2026-04-25 08:24 | 21.19287 | -157.87808 | 40166 ft | 455 kts | 50° |
| 2026-04-25 08:25 | 21.21000 | -157.84942 | 40172 ft | 459 kts | 62° |
| 2026-04-25 08:25 | 21.22128 | -157.81731 | 40170 ft | 462 kts | 75° |
| 2026-04-25 08:25 | 21.22604 | -157.78313 | 40161 ft | 464 kts | 89° |
| 2026-04-25 08:25 | 21.22398 | -157.74866 | 40141 ft | 464 kts | 102° |
| 2026-04-25 08:26 | 21.21521 | -157.71552 | 40131 ft | 462 kts | 116° |
| 2026-04-25 08:26 | 21.20043 | -157.68562 | 40122 ft | 458 kts | 129° |
| 2026-04-25 08:26 | 21.18019 | -157.65964 | 40121 ft | 452 kts | 142° |
| 2026-04-25 08:26 | 21.15574 | -157.63898 | 40140 ft | 445 kts | 154° |
| 2026-04-25 08:27 | 21.12822 | -157.62424 | 40143 ft | 437 kts | 166° |
| 2026-04-25 08:27 | 21.09925 | -157.61587 | 40140 ft | 429 kts | 178° |
| 2026-04-25 08:27 | 21.06973 | -157.61369 | 40138 ft | 421 kts | 186° |
| 2026-04-25 08:28 | 21.01090 | -157.61382 | 40105 ft | 422 kts | 186° |
| 2026-04-25 08:28 | 20.95238 | -157.61431 | 40104 ft | 420 kts | 186° |
| 2026-04-25 08:29 | 20.89609 | -157.62324 | 40132 ft | 406 kts | 206° |
| 2026-04-25 08:29 | 20.84774 | -157.65262 | 40117 ft | 395 kts | 226° |
| 2026-04-25 08:30 | 20.81799 | -157.68882 | 40122 ft | 387 kts | 241° |
| 2026-04-25 08:30 | 20.79574 | -157.75045 | 40107 ft | 382 kts | 263° |
| 2026-04-25 08:31 | 20.79631 | -157.80684 | 40122 ft | 382 kts | 281° |
| 2026-04-25 08:31 | 20.81075 | -157.85172 | 40122 ft | 386 kts | 296° |
| 2026-04-25 08:32 | 20.84372 | -157.89749 | 40128 ft | 395 kts | 315° |
| 2026-04-25 08:32 | 20.87368 | -157.92013 | 40109 ft | 403 kts | 328° |
| 2026-04-25 08:32 | 20.89098 | -157.92865 | 40104 ft | 408 kts | 335° |
| 2026-04-25 08:32 | 20.91853 | -157.93693 | 40108 ft | 415 kts | 346° |
| 2026-04-25 08:33 | 20.94711 | -157.93953 | 40114 ft | 422 kts | 356° |
| 2026-04-25 08:33 | 21.00601 | -157.93939 | 40119 ft | 422 kts | 354° |
| 2026-04-25 08:34 | 21.06480 | -157.93911 | 40122 ft | 422 kts | 354° |
| 2026-04-25 08:34 | 21.12319 | -157.93046 | 40144 ft | 434 kts | 15° |
| 2026-04-25 08:34 | 21.15095 | -157.91688 | 40162 ft | 442 kts | 27° |
| 2026-04-25 08:35 | 21.17596 | -157.89729 | 40161 ft | 449 kts | 39° |
| 2026-04-25 08:35 | 21.19678 | -157.87264 | 40162 ft | 455 kts | 52° |
| 2026-04-25 08:35 | 21.21280 | -157.84322 | 40148 ft | 460 kts | 65° |
| 2026-04-25 08:35 | 21.22282 | -157.81055 | 40138 ft | 463 kts | 79° |
| 2026-04-25 08:36 | 21.22621 | -157.77630 | 40139 ft | 464 kts | 92° |
| 2026-04-25 08:36 | 21.22277 | -157.74198 | 40135 ft | 462 kts | 106° |
| 2026-04-25 08:36 | 21.21277 | -157.70948 | 40135 ft | 459 kts | 119° |
| 2026-04-25 08:36 | 21.19672 | -157.68005 | 40153 ft | 454 kts | 131° |
| 2026-04-25 08:37 | 21.17563 | -157.65516 | 40152 ft | 448 kts | 143° |
| 2026-04-25 08:37 | 21.15070 | -157.63572 | 40143 ft | 441 kts | 156° |
| 2026-04-25 08:37 | 21.12298 | -157.62221 | 40139 ft | 434 kts | 168° |
| 2026-04-25 08:37 | 21.09385 | -157.61498 | 40120 ft | 426 kts | 180° |
| 2026-04-25 08:38 | 21.06461 | -157.61369 | 40109 ft | 421 kts | 186° |
| 2026-04-25 08:38 | 21.00612 | -157.61388 | 40104 ft | 421 kts | 186° |
| 2026-04-25 08:39 | 20.94748 | -157.61434 | 40106 ft | 421 kts | 186° |
| 2026-04-25 08:39 | 20.91854 | -157.61694 | 40127 ft | 412 kts | 197° |
| 2026-04-25 08:39 | 20.89117 | -157.62515 | 40127 ft | 406 kts | 207° |
| 2026-04-25 08:39 | 20.86608 | -157.63842 | 40122 ft | 400 kts | 218° |
| 2026-04-25 08:40 | 20.84398 | -157.65609 | 40103 ft | 395 kts | 227° |
| 2026-04-25 08:40 | 20.81105 | -157.70150 | 40097 ft | 387 kts | 246° |
| 2026-04-25 08:41 | 20.79502 | -157.75577 | 40120 ft | 383 kts | 264° |
| 2026-04-25 08:41 | 20.79736 | -157.81237 | 40115 ft | 384 kts | 282° |
| 2026-04-25 08:42 | 20.81794 | -157.86504 | 40099 ft | 389 kts | 301° |
| 2026-04-25 08:42 | 20.85514 | -157.90751 | 40129 ft | 398 kts | 320° |
| 2026-04-25 08:43 | 20.90551 | -157.93371 | 40140 ft | 411 kts | 340° |
| 2026-04-25 08:43 | 20.93361 | -157.93898 | 40131 ft | 419 kts | 351° |
| 2026-04-25 08:43 | 20.96331 | -157.93938 | 40107 ft | 422 kts | 354° |
| 2026-04-25 08:44 | 21.02164 | -157.93936 | 40112 ft | 422 kts | 354° |
| 2026-04-25 08:44 | 21.08048 | -157.93896 | 40123 ft | 424 kts | 357° |
| 2026-04-25 08:44 | 21.11006 | -157.93455 | 40131 ft | 432 kts | 9° |
| 2026-04-25 08:45 | 21.13866 | -157.92382 | 40138 ft | 440 kts | 22° |
| 2026-04-25 08:45 | 21.16514 | -157.90685 | 40141 ft | 448 kts | 34° |
| 2026-04-25 08:45 | 21.18818 | -157.88411 | 40147 ft | 454 kts | 47° |
| 2026-04-25 08:45 | 21.20654 | -157.85644 | 40151 ft | 459 kts | 60° |
| 2026-04-25 08:46 | 21.21923 | -157.82498 | 40168 ft | 462 kts | 73° |
| 2026-04-25 08:46 | 21.22552 | -157.79119 | 40165 ft | 464 kts | 86° |
| 2026-04-25 08:46 | 21.22508 | -157.75706 | 40164 ft | 464 kts | 99° |
| 2026-04-25 08:46 | 21.21793 | -157.72348 | 40161 ft | 462 kts | 112° |
| 2026-04-25 08:47 | 21.20446 | -157.69245 | 40134 ft | 458 kts | 126° |
| 2026-04-25 08:47 | 21.18544 | -157.66538 | 40122 ft | 453 kts | 139° |
| 2026-04-25 08:47 | 21.16188 | -157.64335 | 40117 ft | 446 kts | 152° |
| 2026-04-25 08:47 | 21.13513 | -157.62722 | 40119 ft | 438 kts | 164° |
| 2026-04-25 08:48 | 21.10638 | -157.61731 | 40123 ft | 429 kts | 175° |
| 2026-04-25 08:48 | 21.07707 | -157.61370 | 40135 ft | 421 kts | 186° |
| 2026-04-25 08:48 | 21.04768 | -157.61370 | 40115 ft | 421 kts | 185° |
| 2026-04-25 08:49 | 20.98919 | -157.61403 | 40111 ft | 420 kts | 186° |
| 2026-04-25 08:49 | 20.93114 | -157.61498 | 40107 ft | 415 kts | 193° |
| 2026-04-25 08:49 | 20.90308 | -157.62082 | 40106 ft | 408 kts | 204° |
| 2026-04-25 08:50 | 20.87695 | -157.63192 | 40117 ft | 401 kts | 213° |
| 2026-04-25 08:50 | 20.83336 | -157.66745 | 40127 ft | 390 kts | 232° |
| 2026-04-25 08:51 | 20.80485 | -157.71583 | 40104 ft | 384 kts | 251° |
| 2026-04-25 08:51 | 20.79380 | -157.77077 | 40094 ft | 382 kts | 269° |
| 2026-04-25 08:52 | 20.80106 | -157.82684 | 40122 ft | 384 kts | 287° |
| 2026-04-25 08:52 | 20.82626 | -157.87746 | 40132 ft | 390 kts | 306° |
| 2026-04-25 08:53 | 20.86728 | -157.91624 | 40106 ft | 402 kts | 326° |
| 2026-04-25 08:53 | 20.91997 | -157.93719 | 40111 ft | 416 kts | 347° |
| 2026-04-25 08:54 | 20.97846 | -157.93939 | 40113 ft | 422 kts | 354° |
| 2026-04-25 08:54 | 21.03716 | -157.93927 | 40121 ft | 421 kts | 354° |
| 2026-04-25 08:55 | 21.09578 | -157.93750 | 40139 ft | 425 kts | 5° |
| 2026-04-25 08:55 | 21.12479 | -157.92987 | 40143 ft | 434 kts | 16° |
| 2026-04-25 08:55 | 21.15243 | -157.91595 | 40154 ft | 443 kts | 28° |
| 2026-04-25 08:55 | 21.17694 | -157.89636 | 40152 ft | 450 kts | 40° |
| 2026-04-25 08:56 | 21.19780 | -157.87114 | 40154 ft | 456 kts | 53° |
| 2026-04-25 08:56 | 21.21355 | -157.84142 | 40148 ft | 460 kts | 66° |
| 2026-04-25 08:56 | 21.22318 | -157.80872 | 40147 ft | 463 kts | 80° |
| 2026-04-25 08:56 | 21.22619 | -157.77444 | 40146 ft | 463 kts | 93° |
| 2026-04-25 08:57 | 21.22237 | -157.74013 | 40143 ft | 462 kts | 106° |
| 2026-04-25 08:57 | 21.21199 | -157.70772 | 40159 ft | 459 kts | 119° |
| 2026-04-25 08:57 | 21.19568 | -157.67857 | 40158 ft | 454 kts | 131° |
| 2026-04-25 08:57 | 21.17462 | -157.65418 | 40155 ft | 448 kts | 144° |
| 2026-04-25 08:58 | 21.14949 | -157.63495 | 40127 ft | 441 kts | 156° |
| 2026-04-25 08:58 | 21.12174 | -157.62175 | 40121 ft | 433 kts | 169° |
| 2026-04-25 08:58 | 21.09259 | -157.61481 | 40114 ft | 425 kts | 180° |
| 2026-04-25 08:59 | 21.03397 | -157.61370 | 40104 ft | 421 kts | 186° |
| 2026-04-25 08:59 | 20.97531 | -157.61416 | 40106 ft | 421 kts | 186° |
| 2026-04-25 09:00 | 20.91720 | -157.61721 | 40128 ft | 412 kts | 198° |
| 2026-04-25 09:00 | 20.89005 | -157.62549 | 40099 ft | 399 kts | 207° |
| 2026-04-25 09:00 | 20.86582 | -157.63832 | 40073 ft | 388 kts | 217° |
| 2026-04-25 09:00 | 20.84440 | -157.65530 | 40075 ft | 376 kts | 227° |
| 2026-04-25 09:01 | 20.82704 | -157.67506 | 40124 ft | 354 kts | 236° |
| 2026-04-25 09:01 | 20.81316 | -157.69631 | 39772 ft | 347 kts | 243° |
| 2026-04-25 09:01 | 20.80202 | -157.71949 | 38913 ft | 355 kts | 249° |
| 2026-04-25 09:01 | 20.79343 | -157.74457 | 38047 ft | 362 kts | 254° |
| 2026-04-25 09:02 | 20.78675 | -157.77023 | 37760 ft | 353 kts | 257° |
| 2026-04-25 09:02 | 20.78111 | -157.79524 | 37651 ft | 340 kts | 258° |
| 2026-04-25 09:02 | 20.77586 | -157.81982 | 37147 ft | 339 kts | 258° |
| 2026-04-25 09:02 | 20.77062 | -157.84484 | 36248 ft | 350 kts | 259° |
| 2026-04-25 09:03 | 20.76527 | -157.87050 | 35561 ft | 356 kts | 259° |
| 2026-04-25 09:03 | 20.75997 | -157.89567 | 35339 ft | 346 kts | 259° |
| 2026-04-25 09:03 | 20.75469 | -157.92033 | 35193 ft | 336 kts | 258° |
| 2026-04-25 09:03 | 20.74943 | -157.94460 | 34675 ft | 337 kts | 259° |
| 2026-04-25 09:04 | 20.74396 | -157.96941 | 33897 ft | 347 kts | 259° |
| 2026-04-25 09:04 | 20.73833 | -157.99471 | 33264 ft | 351 kts | 258° |
| 2026-04-25 09:04 | 20.73276 | -158.01980 | 32989 ft | 343 kts | 259° |
| 2026-04-25 09:04 | 20.72745 | -158.04437 | 32693 ft | 336 kts | 259° |
| 2026-04-25 09:05 | 20.72228 | -158.06881 | 32086 ft | 340 kts | 259° |
| 2026-04-25 09:05 | 20.71706 | -158.09381 | 31380 ft | 348 kts | 259° |
| 2026-04-25 09:05 | 20.71181 | -158.11880 | 30917 ft | 348 kts | 259° |
| 2026-04-25 09:05 | 20.70656 | -158.14375 | 30663 ft | 341 kts | 259° |
| 2026-04-25 09:06 | 20.70134 | -158.16833 | 30300 ft | 338 kts | 259° |
| 2026-04-25 09:06 | 20.69608 | -158.19298 | 29625 ft | 343 kts | 259° |
| 2026-04-25 09:06 | 20.69086 | -158.21794 | 29101 ft | 343 kts | 259° |
| 2026-04-25 09:06 | 20.68578 | -158.24253 | 28893 ft | 334 kts | 259° |
| 2026-04-25 09:07 | 20.68087 | -158.26621 | 28587 ft | 328 kts | 259° |
| 2026-04-25 09:07 | 20.67596 | -158.29008 | 28016 ft | 331 kts | 259° |
| 2026-04-25 09:07 | 20.67106 | -158.31428 | 27494 ft | 333 kts | 259° |
| 2026-04-25 09:07 | 20.66621 | -158.33821 | 27225 ft | 326 kts | 259° |
| 2026-04-25 09:08 | 20.66143 | -158.36158 | 26945 ft | 320 kts | 259° |
| 2026-04-25 09:08 | 20.65670 | -158.38485 | 26464 ft | 321 kts | 259° |
| 2026-04-25 09:08 | 20.65199 | -158.40827 | 25966 ft | 323 kts | 259° |
| 2026-04-25 09:08 | 20.64742 | -158.43136 | 25665 ft | 319 kts | 259° |
| 2026-04-25 09:09 | 20.64289 | -158.45426 | 25407 ft | 313 kts | 259° |
| 2026-04-25 09:09 | 20.63843 | -158.47701 | 24973 ft | 313 kts | 259° |
| 2026-04-25 09:09 | 20.63399 | -158.49983 | 24529 ft | 315 kts | 259° |
| 2026-04-25 09:09 | 20.62960 | -158.52265 | 24209 ft | 312 kts | 259° |
| 2026-04-25 09:10 | 20.62532 | -158.54518 | 23928 ft | 307 kts | 259° |
| 2026-04-25 09:10 | 20.62111 | -158.56747 | 23520 ft | 307 kts | 259° |
| 2026-04-25 09:10 | 20.61687 | -158.58988 | 23021 ft | 308 kts | 259° |
| 2026-04-25 09:10 | 20.61261 | -158.61221 | 22706 ft | 303 kts | 259° |
| 2026-04-25 09:11 | 20.60425 | -158.65570 | 21970 ft | 298 kts | 259° |
| 2026-04-25 09:11 | 20.60006 | -158.67751 | 21522 ft | 299 kts | 259° |
| 2026-04-25 09:11 | 20.59590 | -158.69883 | 21220 ft | 295 kts | 259° |
| 2026-04-25 09:12 | 20.59166 | -158.72009 | 20920 ft | 291 kts | 259° |
| 2026-04-25 09:12 | 20.58739 | -158.74116 | 20509 ft | 291 kts | 259° |
| 2026-04-25 09:12 | 20.58309 | -158.76226 | 20119 ft | 291 kts | 259° |
| 2026-04-25 09:12 | 20.57878 | -158.78321 | 19820 ft | 287 kts | 259° |
| 2026-04-25 09:13 | 20.57447 | -158.80390 | 19511 ft | 284 kts | 259° |
| 2026-04-25 09:13 | 20.57015 | -158.82443 | 19129 ft | 284 kts | 259° |
| 2026-04-25 09:13 | 20.56582 | -158.84493 | 18771 ft | 283 kts | 259° |
| 2026-04-25 09:13 | 20.56156 | -158.86538 | 18479 ft | 280 kts | 259° |
| 2026-04-25 09:14 | 20.55740 | -158.88552 | 18144 ft | 277 kts | 259° |
| 2026-04-25 09:14 | 20.55336 | -158.90512 | 17736 ft | 277 kts | 259° |
| 2026-04-25 09:14 | 20.54920 | -158.92523 | 17357 ft | 276 kts | 260° |
| 2026-04-25 09:14 | 20.54507 | -158.94506 | 17061 ft | 271 kts | 260° |
| 2026-04-25 09:15 | 20.54104 | -158.96463 | 16717 ft | 270 kts | 260° |
| 2026-04-25 09:15 | 20.53698 | -158.98419 | 16310 ft | 271 kts | 260° |
| 2026-04-25 09:15 | 20.53292 | -159.00348 | 15969 ft | 269 kts | 260° |
| 2026-04-25 09:15 | 20.52876 | -159.02277 | 15684 ft | 265 kts | 259° |
| 2026-04-25 09:16 | 20.52459 | -159.04183 | 15345 ft | 264 kts | 259° |
| 2026-04-25 09:16 | 20.52041 | -159.06089 | 14970 ft | 264 kts | 259° |
| 2026-04-25 09:16 | 20.51620 | -159.07989 | 14667 ft | 262 kts | 259° |
| 2026-04-25 09:16 | 20.51194 | -159.09865 | 14379 ft | 259 kts | 259° |
| 2026-04-25 09:17 | 20.50331 | -159.13580 | 13687 ft | 257 kts | 259° |
| 2026-04-25 09:17 | 20.49900 | -159.15424 | 13358 ft | 255 kts | 259° |
| 2026-04-25 09:17 | 20.49472 | -159.17248 | 13016 ft | 253 kts | 259° |
| 2026-04-25 09:18 | 20.49045 | -159.19067 | 12636 ft | 253 kts | 259° |
| 2026-04-25 09:18 | 20.48617 | -159.20888 | 12280 ft | 252 kts | 259° |
| 2026-04-25 09:18 | 20.48198 | -159.22697 | 11973 ft | 250 kts | 259° |
| 2026-04-25 09:18 | 20.47780 | -159.24488 | 11639 ft | 248 kts | 259° |
| 2026-04-25 09:19 | 20.47358 | -159.26277 | 11279 ft | 249 kts | 259° |
| 2026-04-25 09:19 | 20.46932 | -159.28074 | 10948 ft | 249 kts | 259° |
| 2026-04-25 09:19 | 20.46511 | -159.29852 | 10662 ft | 246 kts | 259° |
| 2026-04-25 09:19 | 20.46235 | -159.31017 | 10465 ft | 245 kts | 259° |
| 2026-04-25 09:20 | 20.45815 | -159.32781 | 10118 ft | 246 kts | 259° |
| 2026-04-25 09:20 | 20.45382 | -159.34547 | 9785 ft | 245 kts | 259° |
| 2026-04-25 09:20 | 20.44952 | -159.36302 | 9458 ft | 244 kts | 258° |
| 2026-04-25 09:20 | 20.44525 | -159.38058 | 9083 ft | 245 kts | 259° |
| 2026-04-25 09:21 | 20.44112 | -159.39823 | 8726 ft | 245 kts | 259° |
| 2026-04-25 09:21 | 20.43710 | -159.41583 | 8415 ft | 243 kts | 259° |
| 2026-04-25 09:21 | 20.43308 | -159.43334 | 8090 ft | 243 kts | 259° |
| 2026-04-25 09:21 | 20.42913 | -159.45089 | 7733 ft | 244 kts | 259° |
| 2026-04-25 09:22 | 20.42524 | -159.46855 | 7429 ft | 243 kts | 259° |
| 2026-04-25 09:22 | 20.42145 | -159.48604 | 7145 ft | 241 kts | 260° |
| 2026-04-25 09:22 | 20.41773 | -159.50351 | 6793 ft | 243 kts | 260° |
| 2026-04-25 09:22 | 20.41404 | -159.52112 | 6494 ft | 242 kts | 260° |
| 2026-04-25 09:23 | 20.41042 | -159.53859 | 6180 ft | 241 kts | 260° |
| 2026-04-25 09:23 | 20.40691 | -159.55614 | 5817 ft | 243 kts | 261° |
| 2026-04-25 09:23 | 20.40355 | -159.57382 | 5512 ft | 242 kts | 261° |
| 2026-04-25 09:23 | 20.40039 | -159.59111 | 5260 ft | 240 kts | 261° |
| 2026-04-25 09:24 | 20.39730 | -159.60863 | 4919 ft | 241 kts | 261° |
| 2026-04-25 09:24 | 20.39426 | -159.62630 | 4545 ft | 243 kts | 262° |
| 2026-04-25 09:24 | 20.39128 | -159.64385 | 4334 ft | 238 kts | 261° |
| 2026-04-25 09:24 | 20.38834 | -159.66117 | 4013 ft | 238 kts | 261° |
| 2026-04-25 09:25 | 20.38536 | -159.67861 | 3672 ft | 240 kts | 261° |
| 2026-04-25 09:25 | 20.38243 | -159.69599 | 3415 ft | 236 kts | 261° |
| 2026-04-25 09:25 | 20.37944 | -159.71310 | 3133 ft | 234 kts | 261° |
| 2026-04-25 09:25 | 20.37640 | -159.73031 | 2721 ft | 239 kts | 261° |
| 2026-04-25 09:26 | 20.37330 | -159.74778 | 2384 ft | 238 kts | 261° |
| 2026-04-25 09:26 | 20.37018 | -159.76473 | 2277 ft | 228 kts | 260° |
| 2026-04-25 09:26 | 20.36792 | -159.77657 | 1948 ft | 234 kts | 260° |
| 2026-04-25 09:26 | 20.36438 | -159.79443 | 1038 ft | 260 kts | 259° |
| 2026-04-25 09:27 | 20.36037 | -159.81364 | 518 ft | 265 kts | 260° |
| 2026-04-25 09:27 | 20.35628 | -159.83206 | 523 ft | 243 kts | 259° |
| 2026-04-25 09:27 | 20.35255 | -159.84909 | 351 ft | 234 kts | 260° |
| 2026-04-25 09:27 | 20.34907 | -159.86578 | 9 ft | 215 kts | 263° |
| 2026-04-25 09:28 | 20.34814 | -159.87950 | 8 ft | 147 kts | 283° |
| 2026-04-25 09:28 | 20.34984 | -159.88532 | 8 ft | 9 kts | 293° |
| 2026-04-25 09:28 | 20.34985 | -159.88534 | 8 ft | 0 kts | 293° |